<?xml version="1.0" encoding="UTF-8" standalone="no" ?>
<gpx xmlns="http://www.topografix.com/GPX/1/1" xmlns:xsi="http://www.w3.org/2001/XMLSchema-instance" xsi:schemaLocation="http://www.topografix.com/GPX/1/1 http://www.topografix.com/GPX/1/1/gpx.xsd" version="1.1" creator="VisuGPX - https://www.visugpx.com">
  <metadata>
    <name>2013-06-09 Rando pédestre du Pays rochefortais </name>
    <desc><![CDATA[4ème rando pédestre du Pays rochefortais 9 JUIN 2013]]></desc>
  </metadata>
  <wpt lat="45.90592" lon="-0.96423">
    <ele>15</ele>
  </wpt>
  <wpt lat="45.90517" lon="-0.96306">
    <ele>13</ele>
  </wpt>
  <trk>
    <name><![CDATA[2013-06-09 Rando pédestre du Pays rochefortais _1]]></name>
    <trkseg>
      <trkpt lat="45.90592" lon="-0.96423">
        <ele>15</ele>
        <time>2013-06-09T07:27:20Z</time>
      </trkpt>
      <trkpt lat="45.90563" lon="-0.96495">
        <ele>76</ele>
        <time>2013-06-09T07:27:21Z</time>
      </trkpt>
      <trkpt lat="45.90541" lon="-0.96546">
        <ele>115</ele>
        <time>2013-06-09T07:27:22Z</time>
      </trkpt>
      <trkpt lat="45.90526" lon="-0.96582">
        <ele>143</ele>
        <time>2013-06-09T07:27:23Z</time>
      </trkpt>
      <trkpt lat="45.90513" lon="-0.96608">
        <ele>164</ele>
        <time>2013-06-09T07:27:24Z</time>
      </trkpt>
      <trkpt lat="45.90503" lon="-0.96631">
        <ele>181</ele>
        <time>2013-06-09T07:27:25Z</time>
      </trkpt>
      <trkpt lat="45.90496" lon="-0.96649">
        <ele>194</ele>
        <time>2013-06-09T07:27:26Z</time>
      </trkpt>
      <trkpt lat="45.9049" lon="-0.96665">
        <ele>205</ele>
        <time>2013-06-09T07:27:27Z</time>
      </trkpt>
      <trkpt lat="45.90486" lon="-0.96679">
        <ele>214</ele>
        <time>2013-06-09T07:27:28Z</time>
      </trkpt>
      <trkpt lat="45.90481" lon="-0.96691">
        <ele>222</ele>
        <time>2013-06-09T07:27:29Z</time>
      </trkpt>
      <trkpt lat="45.90474" lon="-0.9671">
        <ele>235</ele>
        <time>2013-06-09T07:27:31Z</time>
      </trkpt>
      <trkpt lat="45.90467" lon="-0.96725">
        <ele>244</ele>
        <time>2013-06-09T07:27:33Z</time>
      </trkpt>
      <trkpt lat="45.90463" lon="-0.96739">
        <ele>252</ele>
        <time>2013-06-09T07:27:35Z</time>
      </trkpt>
      <trkpt lat="45.90459" lon="-0.9675">
        <ele>258</ele>
        <time>2013-06-09T07:27:37Z</time>
      </trkpt>
      <trkpt lat="45.90453" lon="-0.96764">
        <ele>266</ele>
        <time>2013-06-09T07:27:40Z</time>
      </trkpt>
      <trkpt lat="45.90446" lon="-0.96778">
        <ele>273</ele>
        <time>2013-06-09T07:27:44Z</time>
      </trkpt>
      <trkpt lat="45.90439" lon="-0.9679">
        <ele>279</ele>
        <time>2013-06-09T07:27:48Z</time>
      </trkpt>
      <trkpt lat="45.90432" lon="-0.96806">
        <ele>284</ele>
        <time>2013-06-09T07:27:55Z</time>
      </trkpt>
      <trkpt lat="45.90431" lon="-0.96822">
        <ele>284</ele>
        <time>2013-06-09T07:28:02Z</time>
      </trkpt>
      <trkpt lat="45.90433" lon="-0.96838">
        <ele>292</ele>
        <time>2013-06-09T07:28:08Z</time>
      </trkpt>
      <trkpt lat="45.90439" lon="-0.96849">
        <ele>292</ele>
        <time>2013-06-09T07:28:17Z</time>
      </trkpt>
      <trkpt lat="45.90449" lon="-0.96855">
        <ele>298</ele>
        <time>2013-06-09T07:28:24Z</time>
      </trkpt>
      <trkpt lat="45.90446" lon="-0.96873">
        <ele>298</ele>
        <time>2013-06-09T07:28:29Z</time>
      </trkpt>
      <trkpt lat="45.90447" lon="-0.96887">
        <ele>298</ele>
        <time>2013-06-09T07:28:32Z</time>
      </trkpt>
      <trkpt lat="45.90455" lon="-0.96877">
        <ele>298</ele>
        <time>2013-06-09T07:28:36Z</time>
      </trkpt>
      <trkpt lat="45.90464" lon="-0.9687">
        <ele>298</ele>
        <time>2013-06-09T07:28:42Z</time>
      </trkpt>
      <trkpt lat="45.90462" lon="-0.96885">
        <ele>303</ele>
        <time>2013-06-09T07:28:45Z</time>
      </trkpt>
      <trkpt lat="45.9046" lon="-0.96902">
        <ele>303</ele>
        <time>2013-06-09T07:28:48Z</time>
      </trkpt>
      <trkpt lat="45.9047" lon="-0.96892">
        <ele>297</ele>
        <time>2013-06-09T07:28:51Z</time>
      </trkpt>
      <trkpt lat="45.90481" lon="-0.96882">
        <ele>288</ele>
        <time>2013-06-09T07:28:55Z</time>
      </trkpt>
      <trkpt lat="45.90491" lon="-0.96873">
        <ele>280</ele>
        <time>2013-06-09T07:28:58Z</time>
      </trkpt>
      <trkpt lat="45.90499" lon="-0.96864">
        <ele>271</ele>
        <time>2013-06-09T07:29:02Z</time>
      </trkpt>
      <trkpt lat="45.90507" lon="-0.96853">
        <ele>263</ele>
        <time>2013-06-09T07:29:05Z</time>
      </trkpt>
      <trkpt lat="45.90517" lon="-0.96832">
        <ele>252</ele>
        <time>2013-06-09T07:29:06Z</time>
      </trkpt>
      <trkpt lat="45.90528" lon="-0.96817">
        <ele>244</ele>
        <time>2013-06-09T07:29:10Z</time>
      </trkpt>
      <trkpt lat="45.90536" lon="-0.96801">
        <ele>238</ele>
        <time>2013-06-09T07:29:12Z</time>
      </trkpt>
      <trkpt lat="45.90546" lon="-0.96786">
        <ele>228</ele>
        <time>2013-06-09T07:29:14Z</time>
      </trkpt>
      <trkpt lat="45.90553" lon="-0.96772">
        <ele>221</ele>
        <time>2013-06-09T07:29:15Z</time>
      </trkpt>
      <trkpt lat="45.90559" lon="-0.9676">
        <ele>215</ele>
        <time>2013-06-09T07:29:16Z</time>
      </trkpt>
      <trkpt lat="45.90568" lon="-0.96745">
        <ele>208</ele>
        <time>2013-06-09T07:29:18Z</time>
      </trkpt>
      <trkpt lat="45.90576" lon="-0.96733">
        <ele>200</ele>
        <time>2013-06-09T07:29:21Z</time>
      </trkpt>
      <trkpt lat="45.90583" lon="-0.96723">
        <ele>192</ele>
        <time>2013-06-09T07:29:24Z</time>
      </trkpt>
      <trkpt lat="45.90592" lon="-0.96714">
        <ele>192</ele>
        <time>2013-06-09T07:29:28Z</time>
      </trkpt>
      <trkpt lat="45.906" lon="-0.96707">
        <ele>185</ele>
        <time>2013-06-09T07:29:32Z</time>
      </trkpt>
      <trkpt lat="45.90608" lon="-0.96698">
        <ele>167</ele>
        <time>2013-06-09T07:29:42Z</time>
      </trkpt>
      <trkpt lat="45.90618" lon="-0.96693">
        <ele>159</ele>
        <time>2013-06-09T07:29:48Z</time>
      </trkpt>
      <trkpt lat="45.90666" lon="-0.96554">
        <ele>56</ele>
        <time>2013-06-09T07:29:49Z</time>
      </trkpt>
      <trkpt lat="45.90676" lon="-0.96542">
        <ele>39</ele>
        <time>2013-06-09T07:29:51Z</time>
      </trkpt>
      <trkpt lat="45.90686" lon="-0.96539">
        <ele>22</ele>
        <time>2013-06-09T07:29:56Z</time>
      </trkpt>
      <trkpt lat="45.90693" lon="-0.96531">
        <ele>-5</ele>
        <time>2013-06-09T07:30:10Z</time>
      </trkpt>
      <trkpt lat="45.90703" lon="-0.96528">
        <ele>-13</ele>
        <time>2013-06-09T07:30:21Z</time>
      </trkpt>
      <trkpt lat="45.90713" lon="-0.96529">
        <ele>-13</ele>
        <time>2013-06-09T07:30:26Z</time>
      </trkpt>
      <trkpt lat="45.90722" lon="-0.96527">
        <ele>-13</ele>
        <time>2013-06-09T07:30:35Z</time>
      </trkpt>
      <trkpt lat="45.90732" lon="-0.96521">
        <ele>-6</ele>
        <time>2013-06-09T07:30:43Z</time>
      </trkpt>
      <trkpt lat="45.90742" lon="-0.96524">
        <ele>-6</ele>
        <time>2013-06-09T07:30:46Z</time>
      </trkpt>
      <trkpt lat="45.90752" lon="-0.96522">
        <ele>10.3</ele>
        <time>2013-06-09T07:30:52Z</time>
      </trkpt>
      <trkpt lat="45.9076" lon="-0.96516">
        <ele>10.6</ele>
        <time>2013-06-09T07:31:01Z</time>
      </trkpt>
      <trkpt lat="45.90771" lon="-0.96513">
        <ele>10</ele>
        <time>2013-06-09T07:31:15Z</time>
      </trkpt>
      <trkpt lat="45.90778" lon="-0.96503">
        <ele>10</ele>
        <time>2013-06-09T07:31:33Z</time>
      </trkpt>
      <trkpt lat="45.90787" lon="-0.96507">
        <ele>10</ele>
        <time>2013-06-09T07:31:36Z</time>
      </trkpt>
      <trkpt lat="45.90796" lon="-0.9651">
        <ele>10</ele>
        <time>2013-06-09T07:31:40Z</time>
      </trkpt>
      <trkpt lat="45.90807" lon="-0.96509">
        <ele>10</ele>
        <time>2013-06-09T07:31:54Z</time>
      </trkpt>
      <trkpt lat="45.90816" lon="-0.96511">
        <ele>10</ele>
        <time>2013-06-09T07:32:01Z</time>
      </trkpt>
      <trkpt lat="45.90825" lon="-0.96511">
        <ele>5</ele>
        <time>2013-06-09T07:32:08Z</time>
      </trkpt>
      <trkpt lat="45.90836" lon="-0.96514">
        <ele>5</ele>
        <time>2013-06-09T07:32:15Z</time>
      </trkpt>
      <trkpt lat="45.90846" lon="-0.96512">
        <ele>5</ele>
        <time>2013-06-09T07:32:22Z</time>
      </trkpt>
      <trkpt lat="45.90856" lon="-0.96512">
        <ele>5</ele>
        <time>2013-06-09T07:32:28Z</time>
      </trkpt>
      <trkpt lat="45.90864" lon="-0.96509">
        <ele>5</ele>
        <time>2013-06-09T07:32:37Z</time>
      </trkpt>
      <trkpt lat="45.90872" lon="-0.96502">
        <ele>12</ele>
        <time>2013-06-09T07:32:49Z</time>
      </trkpt>
      <trkpt lat="45.90869" lon="-0.96489">
        <ele>12</ele>
        <time>2013-06-09T07:32:59Z</time>
      </trkpt>
      <trkpt lat="45.90872" lon="-0.96476">
        <ele>12</ele>
        <time>2013-06-09T07:33:13Z</time>
      </trkpt>
      <trkpt lat="45.90878" lon="-0.96466">
        <ele>12</ele>
        <time>2013-06-09T07:33:24Z</time>
      </trkpt>
      <trkpt lat="45.90888" lon="-0.96466">
        <ele>12</ele>
        <time>2013-06-09T07:33:29Z</time>
      </trkpt>
      <trkpt lat="45.90899" lon="-0.96467">
        <ele>12</ele>
        <time>2013-06-09T07:33:33Z</time>
      </trkpt>
      <trkpt lat="45.90908" lon="-0.96459">
        <ele>12</ele>
        <time>2013-06-09T07:33:44Z</time>
      </trkpt>
      <trkpt lat="45.90917" lon="-0.96454">
        <ele>12</ele>
        <time>2013-06-09T07:33:58Z</time>
      </trkpt>
      <trkpt lat="45.90926" lon="-0.96446">
        <ele>12</ele>
        <time>2013-06-09T07:34:09Z</time>
      </trkpt>
      <trkpt lat="45.90932" lon="-0.96435">
        <ele>12</ele>
        <time>2013-06-09T07:34:15Z</time>
      </trkpt>
      <trkpt lat="45.90936" lon="-0.96422">
        <ele>22</ele>
        <time>2013-06-09T07:34:22Z</time>
      </trkpt>
      <trkpt lat="45.90946" lon="-0.96417">
        <ele>22</ele>
        <time>2013-06-09T07:34:35Z</time>
      </trkpt>
      <trkpt lat="45.90956" lon="-0.96423">
        <ele>16</ele>
        <time>2013-06-09T07:34:38Z</time>
      </trkpt>
      <trkpt lat="45.90965" lon="-0.96426">
        <ele>16</ele>
        <time>2013-06-09T07:34:43Z</time>
      </trkpt>
      <trkpt lat="45.9097" lon="-0.96413">
        <ele>16</ele>
        <time>2013-06-09T07:34:54Z</time>
      </trkpt>
      <trkpt lat="45.90982" lon="-0.96415">
        <ele>16</ele>
        <time>2013-06-09T07:35:05Z</time>
      </trkpt>
      <trkpt lat="45.90992" lon="-0.9642">
        <ele>16</ele>
        <time>2013-06-09T07:35:11Z</time>
      </trkpt>
      <trkpt lat="45.91001" lon="-0.96424">
        <ele>16</ele>
        <time>2013-06-09T07:35:18Z</time>
      </trkpt>
      <trkpt lat="45.91012" lon="-0.96429">
        <ele>16</ele>
        <time>2013-06-09T07:35:32Z</time>
      </trkpt>
      <trkpt lat="45.91021" lon="-0.96423">
        <ele>16</ele>
        <time>2013-06-09T07:35:35Z</time>
      </trkpt>
      <trkpt lat="45.9103" lon="-0.9642">
        <ele>16</ele>
        <time>2013-06-09T07:35:43Z</time>
      </trkpt>
      <trkpt lat="45.91039" lon="-0.96423">
        <ele>16</ele>
        <time>2013-06-09T07:35:47Z</time>
      </trkpt>
      <trkpt lat="45.91046" lon="-0.96433">
        <ele>16</ele>
        <time>2013-06-09T07:35:58Z</time>
      </trkpt>
      <trkpt lat="45.91052" lon="-0.96445">
        <ele>16</ele>
        <time>2013-06-09T07:36:06Z</time>
      </trkpt>
      <trkpt lat="45.91052" lon="-0.96458">
        <ele>16</ele>
        <time>2013-06-09T07:36:17Z</time>
      </trkpt>
      <trkpt lat="45.91059" lon="-0.96469">
        <ele>16</ele>
        <time>2013-06-09T07:36:24Z</time>
      </trkpt>
      <trkpt lat="45.91064" lon="-0.96481">
        <ele>16</ele>
        <time>2013-06-09T07:36:32Z</time>
      </trkpt>
      <trkpt lat="45.91071" lon="-0.9649">
        <ele>16</ele>
        <time>2013-06-09T07:36:41Z</time>
      </trkpt>
      <trkpt lat="45.9108" lon="-0.96498">
        <ele>16</ele>
        <time>2013-06-09T07:36:49Z</time>
      </trkpt>
      <trkpt lat="45.9109" lon="-0.96497">
        <ele>16</ele>
        <time>2013-06-09T07:36:57Z</time>
      </trkpt>
      <trkpt lat="45.91099" lon="-0.96493">
        <ele>16</ele>
        <time>2013-06-09T07:37:08Z</time>
      </trkpt>
      <trkpt lat="45.91108" lon="-0.96493">
        <ele>16</ele>
        <time>2013-06-09T07:37:15Z</time>
      </trkpt>
      <trkpt lat="45.91118" lon="-0.96493">
        <ele>16</ele>
        <time>2013-06-09T07:37:21Z</time>
      </trkpt>
      <trkpt lat="45.91127" lon="-0.96487">
        <ele>16</ele>
        <time>2013-06-09T07:37:32Z</time>
      </trkpt>
      <trkpt lat="45.91138" lon="-0.96485">
        <ele>16</ele>
        <time>2013-06-09T07:37:39Z</time>
      </trkpt>
      <trkpt lat="45.91147" lon="-0.96482">
        <ele>16</ele>
        <time>2013-06-09T07:37:46Z</time>
      </trkpt>
      <trkpt lat="45.91157" lon="-0.96479">
        <ele>16</ele>
        <time>2013-06-09T07:37:58Z</time>
      </trkpt>
      <trkpt lat="45.91167" lon="-0.96479">
        <ele>16</ele>
        <time>2013-06-09T07:38:05Z</time>
      </trkpt>
      <trkpt lat="45.91177" lon="-0.96478">
        <ele>16</ele>
        <time>2013-06-09T07:38:12Z</time>
      </trkpt>
      <trkpt lat="45.91186" lon="-0.96479">
        <ele>16</ele>
        <time>2013-06-09T07:38:18Z</time>
      </trkpt>
      <trkpt lat="45.91196" lon="-0.96475">
        <ele>16</ele>
        <time>2013-06-09T07:38:31Z</time>
      </trkpt>
      <trkpt lat="45.91207" lon="-0.96475">
        <ele>16</ele>
        <time>2013-06-09T07:38:39Z</time>
      </trkpt>
      <trkpt lat="45.91215" lon="-0.96478">
        <ele>16</ele>
        <time>2013-06-09T07:38:43Z</time>
      </trkpt>
      <trkpt lat="45.91224" lon="-0.96485">
        <ele>16</ele>
        <time>2013-06-09T07:38:56Z</time>
      </trkpt>
      <trkpt lat="45.91227" lon="-0.96498">
        <ele>16</ele>
        <time>2013-06-09T07:39:05Z</time>
      </trkpt>
      <trkpt lat="45.91227" lon="-0.96512">
        <ele>16</ele>
        <time>2013-06-09T07:39:18Z</time>
      </trkpt>
      <trkpt lat="45.9123" lon="-0.96525">
        <ele>16</ele>
        <time>2013-06-09T07:39:23Z</time>
      </trkpt>
      <trkpt lat="45.91229" lon="-0.96539">
        <ele>16</ele>
        <time>2013-06-09T07:39:30Z</time>
      </trkpt>
      <trkpt lat="45.91236" lon="-0.96548">
        <ele>16</ele>
        <time>2013-06-09T07:39:38Z</time>
      </trkpt>
      <trkpt lat="45.91246" lon="-0.96551">
        <ele>16</ele>
        <time>2013-06-09T07:39:47Z</time>
      </trkpt>
      <trkpt lat="45.91256" lon="-0.96551">
        <ele>16</ele>
        <time>2013-06-09T07:40:00Z</time>
      </trkpt>
      <trkpt lat="45.91266" lon="-0.96553">
        <ele>16</ele>
        <time>2013-06-09T07:40:09Z</time>
      </trkpt>
      <trkpt lat="45.91275" lon="-0.96553">
        <ele>16</ele>
        <time>2013-06-09T07:40:21Z</time>
      </trkpt>
      <trkpt lat="45.91286" lon="-0.96555">
        <ele>16</ele>
        <time>2013-06-09T07:40:28Z</time>
      </trkpt>
      <trkpt lat="45.91295" lon="-0.96557">
        <ele>16</ele>
        <time>2013-06-09T07:40:33Z</time>
      </trkpt>
      <trkpt lat="45.91304" lon="-0.96559">
        <ele>16</ele>
        <time>2013-06-09T07:40:43Z</time>
      </trkpt>
      <trkpt lat="45.91316" lon="-0.96557">
        <ele>16</ele>
        <time>2013-06-09T07:40:53Z</time>
      </trkpt>
      <trkpt lat="45.91326" lon="-0.96561">
        <ele>16</ele>
        <time>2013-06-09T07:40:58Z</time>
      </trkpt>
      <trkpt lat="45.91335" lon="-0.96564">
        <ele>16</ele>
        <time>2013-06-09T07:41:08Z</time>
      </trkpt>
      <trkpt lat="45.91345" lon="-0.96564">
        <ele>9</ele>
        <time>2013-06-09T07:41:16Z</time>
      </trkpt>
      <trkpt lat="45.91354" lon="-0.96561">
        <ele>9</ele>
        <time>2013-06-09T07:41:30Z</time>
      </trkpt>
      <trkpt lat="45.9136" lon="-0.9655">
        <ele>9</ele>
        <time>2013-06-09T07:41:39Z</time>
      </trkpt>
      <trkpt lat="45.91371" lon="-0.96544">
        <ele>9</ele>
        <time>2013-06-09T07:41:43Z</time>
      </trkpt>
      <trkpt lat="45.9138" lon="-0.96535">
        <ele>9</ele>
        <time>2013-06-09T07:41:53Z</time>
      </trkpt>
      <trkpt lat="45.91383" lon="-0.96522">
        <ele>9</ele>
        <time>2013-06-09T07:42:00Z</time>
      </trkpt>
      <trkpt lat="45.91382" lon="-0.96509">
        <ele>14</ele>
        <time>2013-06-09T07:42:06Z</time>
      </trkpt>
      <trkpt lat="45.91384" lon="-0.96495">
        <ele>14</ele>
        <time>2013-06-09T07:42:11Z</time>
      </trkpt>
      <trkpt lat="45.91387" lon="-0.96482">
        <ele>14</ele>
        <time>2013-06-09T07:42:20Z</time>
      </trkpt>
      <trkpt lat="45.91397" lon="-0.96483">
        <ele>14</ele>
        <time>2013-06-09T07:42:26Z</time>
      </trkpt>
      <trkpt lat="45.91406" lon="-0.96483">
        <ele>14</ele>
        <time>2013-06-09T07:42:33Z</time>
      </trkpt>
      <trkpt lat="45.91413" lon="-0.96473">
        <ele>14</ele>
        <time>2013-06-09T07:42:41Z</time>
      </trkpt>
      <trkpt lat="45.91418" lon="-0.9646">
        <ele>14</ele>
        <time>2013-06-09T07:42:51Z</time>
      </trkpt>
      <trkpt lat="45.91415" lon="-0.96448">
        <ele>14</ele>
        <time>2013-06-09T07:42:58Z</time>
      </trkpt>
      <trkpt lat="45.91411" lon="-0.96435">
        <ele>14</ele>
        <time>2013-06-09T07:43:04Z</time>
      </trkpt>
      <trkpt lat="45.91409" lon="-0.96423">
        <ele>14</ele>
        <time>2013-06-09T07:43:11Z</time>
      </trkpt>
      <trkpt lat="45.91407" lon="-0.96408">
        <ele>14</ele>
        <time>2013-06-09T07:43:21Z</time>
      </trkpt>
      <trkpt lat="45.91413" lon="-0.96397">
        <ele>14</ele>
        <time>2013-06-09T07:43:30Z</time>
      </trkpt>
      <trkpt lat="45.91422" lon="-0.96394">
        <ele>14</ele>
        <time>2013-06-09T07:43:38Z</time>
      </trkpt>
      <trkpt lat="45.91432" lon="-0.96396">
        <ele>14</ele>
        <time>2013-06-09T07:43:45Z</time>
      </trkpt>
      <trkpt lat="45.91442" lon="-0.96395">
        <ele>8</ele>
        <time>2013-06-09T07:43:54Z</time>
      </trkpt>
      <trkpt lat="45.91451" lon="-0.96389">
        <ele>8</ele>
        <time>2013-06-09T07:44:03Z</time>
      </trkpt>
      <trkpt lat="45.91459" lon="-0.96382">
        <ele>8</ele>
        <time>2013-06-09T07:44:14Z</time>
      </trkpt>
      <trkpt lat="45.91468" lon="-0.96379">
        <ele>8</ele>
        <time>2013-06-09T07:44:23Z</time>
      </trkpt>
      <trkpt lat="45.91471" lon="-0.96366">
        <ele>8</ele>
        <time>2013-06-09T07:44:32Z</time>
      </trkpt>
      <trkpt lat="45.91474" lon="-0.96353">
        <ele>8</ele>
        <time>2013-06-09T07:44:41Z</time>
      </trkpt>
      <trkpt lat="45.91476" lon="-0.9634">
        <ele>1</ele>
        <time>2013-06-09T07:44:52Z</time>
      </trkpt>
      <trkpt lat="45.91469" lon="-0.9633">
        <ele>1</ele>
        <time>2013-06-09T07:45:00Z</time>
      </trkpt>
      <trkpt lat="45.91468" lon="-0.96317">
        <ele>-7</ele>
        <time>2013-06-09T07:45:12Z</time>
      </trkpt>
      <trkpt lat="45.91467" lon="-0.96303">
        <ele>-7</ele>
        <time>2013-06-09T07:45:20Z</time>
      </trkpt>
      <trkpt lat="45.91467" lon="-0.9629">
        <ele>-7</ele>
        <time>2013-06-09T07:45:31Z</time>
      </trkpt>
      <trkpt lat="45.91468" lon="-0.96275">
        <ele>-7</ele>
        <time>2013-06-09T07:45:39Z</time>
      </trkpt>
      <trkpt lat="45.91468" lon="-0.96261">
        <ele>-7</ele>
        <time>2013-06-09T07:45:46Z</time>
      </trkpt>
      <trkpt lat="45.91466" lon="-0.96246">
        <ele>-1</ele>
        <time>2013-06-09T07:45:53Z</time>
      </trkpt>
      <trkpt lat="45.91465" lon="-0.96231">
        <ele>4</ele>
        <time>2013-06-09T07:46:00Z</time>
      </trkpt>
      <trkpt lat="45.91465" lon="-0.96217">
        <ele>4</ele>
        <time>2013-06-09T07:46:08Z</time>
      </trkpt>
      <trkpt lat="45.91468" lon="-0.96204">
        <ele>10</ele>
        <time>2013-06-09T07:46:17Z</time>
      </trkpt>
      <trkpt lat="45.91469" lon="-0.9619">
        <ele>4</ele>
        <time>2013-06-09T07:46:26Z</time>
      </trkpt>
      <trkpt lat="45.91472" lon="-0.96176">
        <ele>4</ele>
        <time>2013-06-09T07:46:35Z</time>
      </trkpt>
      <trkpt lat="45.91474" lon="-0.96163">
        <ele>4</ele>
        <time>2013-06-09T07:46:44Z</time>
      </trkpt>
      <trkpt lat="45.91476" lon="-0.96149">
        <ele>4</ele>
        <time>2013-06-09T07:46:52Z</time>
      </trkpt>
      <trkpt lat="45.91478" lon="-0.96136">
        <ele>4</ele>
        <time>2013-06-09T07:47:00Z</time>
      </trkpt>
      <trkpt lat="45.9148" lon="-0.96122">
        <ele>-3</ele>
        <time>2013-06-09T07:47:09Z</time>
      </trkpt>
      <trkpt lat="45.91482" lon="-0.96109">
        <ele>-3</ele>
        <time>2013-06-09T07:47:18Z</time>
      </trkpt>
      <trkpt lat="45.91484" lon="-0.96095">
        <ele>-3</ele>
        <time>2013-06-09T07:47:27Z</time>
      </trkpt>
      <trkpt lat="45.9149" lon="-0.96084">
        <ele>-3</ele>
        <time>2013-06-09T07:47:34Z</time>
      </trkpt>
      <trkpt lat="45.915" lon="-0.96084">
        <ele>3</ele>
        <time>2013-06-09T07:47:46Z</time>
      </trkpt>
      <trkpt lat="45.91509" lon="-0.96081">
        <ele>3</ele>
        <time>2013-06-09T07:47:56Z</time>
      </trkpt>
      <trkpt lat="45.91502" lon="-0.96072">
        <ele>3</ele>
        <time>2013-06-09T07:48:05Z</time>
      </trkpt>
      <trkpt lat="45.91498" lon="-0.96059">
        <ele>3</ele>
        <time>2013-06-09T07:48:14Z</time>
      </trkpt>
      <trkpt lat="45.91507" lon="-0.96053">
        <ele>3</ele>
        <time>2013-06-09T07:48:25Z</time>
      </trkpt>
      <trkpt lat="45.91516" lon="-0.96054">
        <ele>3</ele>
        <time>2013-06-09T07:48:42Z</time>
      </trkpt>
      <trkpt lat="45.91526" lon="-0.96056">
        <ele>10</ele>
        <time>2013-06-09T07:49:12Z</time>
      </trkpt>
      <trkpt lat="45.91535" lon="-0.96064">
        <ele>10</ele>
        <time>2013-06-09T07:49:22Z</time>
      </trkpt>
      <trkpt lat="45.91531" lon="-0.96051">
        <ele>10</ele>
        <time>2013-06-09T07:49:39Z</time>
      </trkpt>
      <trkpt lat="45.91535" lon="-0.96038">
        <ele>10</ele>
        <time>2013-06-09T07:49:53Z</time>
      </trkpt>
      <trkpt lat="45.91533" lon="-0.96023">
        <ele>10</ele>
        <time>2013-06-09T07:50:02Z</time>
      </trkpt>
      <trkpt lat="45.9153" lon="-0.9601">
        <ele>10</ele>
        <time>2013-06-09T07:50:15Z</time>
      </trkpt>
      <trkpt lat="45.91529" lon="-0.95997">
        <ele>10</ele>
        <time>2013-06-09T07:50:25Z</time>
      </trkpt>
      <trkpt lat="45.91525" lon="-0.95985">
        <ele>10</ele>
        <time>2013-06-09T07:51:05Z</time>
      </trkpt>
      <trkpt lat="45.91525" lon="-0.95972">
        <ele>10</ele>
        <time>2013-06-09T07:51:14Z</time>
      </trkpt>
      <trkpt lat="45.9152" lon="-0.95959">
        <ele>10</ele>
        <time>2013-06-09T07:51:35Z</time>
      </trkpt>
      <trkpt lat="45.91513" lon="-0.9595">
        <ele>10</ele>
        <time>2013-06-09T07:51:42Z</time>
      </trkpt>
      <trkpt lat="45.91507" lon="-0.9594">
        <ele>10</ele>
        <time>2013-06-09T07:51:50Z</time>
      </trkpt>
      <trkpt lat="45.91503" lon="-0.95926">
        <ele>10</ele>
        <time>2013-06-09T07:51:58Z</time>
      </trkpt>
      <trkpt lat="45.91509" lon="-0.95915">
        <ele>10</ele>
        <time>2013-06-09T07:52:06Z</time>
      </trkpt>
      <trkpt lat="45.91518" lon="-0.95912">
        <ele>10</ele>
        <time>2013-06-09T07:52:15Z</time>
      </trkpt>
      <trkpt lat="45.91527" lon="-0.95908">
        <ele>10</ele>
        <time>2013-06-09T07:52:24Z</time>
      </trkpt>
      <trkpt lat="45.91536" lon="-0.95904">
        <ele>10</ele>
        <time>2013-06-09T07:52:35Z</time>
      </trkpt>
      <trkpt lat="45.91545" lon="-0.9591">
        <ele>10</ele>
        <time>2013-06-09T07:53:10Z</time>
      </trkpt>
      <trkpt lat="45.91536" lon="-0.95906">
        <ele>10</ele>
        <time>2013-06-09T07:53:38Z</time>
      </trkpt>
      <trkpt lat="45.91534" lon="-0.95893">
        <ele>10</ele>
        <time>2013-06-09T07:53:48Z</time>
      </trkpt>
      <trkpt lat="45.91536" lon="-0.95878">
        <ele>10</ele>
        <time>2013-06-09T07:53:57Z</time>
      </trkpt>
      <trkpt lat="45.91538" lon="-0.95865">
        <ele>5</ele>
        <time>2013-06-09T07:54:07Z</time>
      </trkpt>
      <trkpt lat="45.9154" lon="-0.9585">
        <ele>5</ele>
        <time>2013-06-09T07:54:16Z</time>
      </trkpt>
      <trkpt lat="45.91542" lon="-0.95837">
        <ele>5</ele>
        <time>2013-06-09T07:54:25Z</time>
      </trkpt>
      <trkpt lat="45.91533" lon="-0.95832">
        <ele>5</ele>
        <time>2013-06-09T07:54:36Z</time>
      </trkpt>
      <trkpt lat="45.91525" lon="-0.95836">
        <ele>5</ele>
        <time>2013-06-09T07:54:45Z</time>
      </trkpt>
      <trkpt lat="45.91515" lon="-0.95834">
        <ele>5</ele>
        <time>2013-06-09T07:54:55Z</time>
      </trkpt>
      <trkpt lat="45.91506" lon="-0.95836">
        <ele>5</ele>
        <time>2013-06-09T07:55:05Z</time>
      </trkpt>
      <trkpt lat="45.91497" lon="-0.9584">
        <ele>5</ele>
        <time>2013-06-09T07:55:14Z</time>
      </trkpt>
      <trkpt lat="45.91487" lon="-0.95839">
        <ele>5</ele>
        <time>2013-06-09T07:55:23Z</time>
      </trkpt>
      <trkpt lat="45.91478" lon="-0.9584">
        <ele>5</ele>
        <time>2013-06-09T07:55:34Z</time>
      </trkpt>
      <trkpt lat="45.91469" lon="-0.95847">
        <ele>5</ele>
        <time>2013-06-09T07:55:44Z</time>
      </trkpt>
      <trkpt lat="45.91461" lon="-0.95852">
        <ele>5</ele>
        <time>2013-06-09T07:55:52Z</time>
      </trkpt>
      <trkpt lat="45.91451" lon="-0.95846">
        <ele>5</ele>
        <time>2013-06-09T07:56:02Z</time>
      </trkpt>
      <trkpt lat="45.91442" lon="-0.95847">
        <ele>5</ele>
        <time>2013-06-09T07:56:08Z</time>
      </trkpt>
      <trkpt lat="45.91433" lon="-0.9584">
        <ele>12</ele>
        <time>2013-06-09T07:56:19Z</time>
      </trkpt>
      <trkpt lat="45.91424" lon="-0.95836">
        <ele>12</ele>
        <time>2013-06-09T07:56:28Z</time>
      </trkpt>
      <trkpt lat="45.91415" lon="-0.95834">
        <ele>12</ele>
        <time>2013-06-09T07:56:37Z</time>
      </trkpt>
      <trkpt lat="45.91405" lon="-0.95831">
        <ele>7.9</ele>
        <time>2013-06-09T07:56:49Z</time>
      </trkpt>
      <trkpt lat="45.91397" lon="-0.95822">
        <ele>8</ele>
        <time>2013-06-09T07:56:57Z</time>
      </trkpt>
      <trkpt lat="45.91389" lon="-0.95818">
        <ele>8</ele>
        <time>2013-06-09T07:57:06Z</time>
      </trkpt>
      <trkpt lat="45.91379" lon="-0.95816">
        <ele>8</ele>
        <time>2013-06-09T07:57:14Z</time>
      </trkpt>
      <trkpt lat="45.9137" lon="-0.95815">
        <ele>8</ele>
        <time>2013-06-09T07:57:22Z</time>
      </trkpt>
      <trkpt lat="45.9136" lon="-0.95817">
        <ele>16</ele>
        <time>2013-06-09T07:57:33Z</time>
      </trkpt>
      <trkpt lat="45.91351" lon="-0.95822">
        <ele>16</ele>
        <time>2013-06-09T07:57:45Z</time>
      </trkpt>
      <trkpt lat="45.91342" lon="-0.95831">
        <ele>8</ele>
        <time>2013-06-09T07:57:57Z</time>
      </trkpt>
      <trkpt lat="45.91335" lon="-0.9584">
        <ele>8</ele>
        <time>2013-06-09T07:58:04Z</time>
      </trkpt>
      <trkpt lat="45.91328" lon="-0.95849">
        <ele>8</ele>
        <time>2013-06-09T07:58:14Z</time>
      </trkpt>
      <trkpt lat="45.9132" lon="-0.95857">
        <ele>14</ele>
        <time>2013-06-09T07:58:24Z</time>
      </trkpt>
      <trkpt lat="45.91313" lon="-0.95868">
        <ele>14</ele>
        <time>2013-06-09T07:58:33Z</time>
      </trkpt>
      <trkpt lat="45.91304" lon="-0.95876">
        <ele>14</ele>
        <time>2013-06-09T07:58:42Z</time>
      </trkpt>
      <trkpt lat="45.91296" lon="-0.95884">
        <ele>14</ele>
        <time>2013-06-09T07:58:52Z</time>
      </trkpt>
      <trkpt lat="45.91288" lon="-0.95891">
        <ele>14</ele>
        <time>2013-06-09T07:59:01Z</time>
      </trkpt>
      <trkpt lat="45.9128" lon="-0.95898">
        <ele>14</ele>
        <time>2013-06-09T07:59:09Z</time>
      </trkpt>
      <trkpt lat="45.91271" lon="-0.95904">
        <ele>14</ele>
        <time>2013-06-09T07:59:19Z</time>
      </trkpt>
      <trkpt lat="45.91262" lon="-0.95909">
        <ele>14</ele>
        <time>2013-06-09T07:59:27Z</time>
      </trkpt>
      <trkpt lat="45.91253" lon="-0.95915">
        <ele>14</ele>
        <time>2013-06-09T07:59:34Z</time>
      </trkpt>
      <trkpt lat="45.91244" lon="-0.95921">
        <ele>14</ele>
        <time>2013-06-09T07:59:42Z</time>
      </trkpt>
      <trkpt lat="45.91236" lon="-0.95927">
        <ele>14</ele>
        <time>2013-06-09T07:59:50Z</time>
      </trkpt>
      <trkpt lat="45.91227" lon="-0.95931">
        <ele>14</ele>
        <time>2013-06-09T08:00:00Z</time>
      </trkpt>
      <trkpt lat="45.91218" lon="-0.95938">
        <ele>14</ele>
        <time>2013-06-09T08:00:09Z</time>
      </trkpt>
      <trkpt lat="45.91209" lon="-0.95942">
        <ele>14</ele>
        <time>2013-06-09T08:00:18Z</time>
      </trkpt>
      <trkpt lat="45.91199" lon="-0.95943">
        <ele>14</ele>
        <time>2013-06-09T08:00:27Z</time>
      </trkpt>
      <trkpt lat="45.9119" lon="-0.95943">
        <ele>14</ele>
        <time>2013-06-09T08:00:35Z</time>
      </trkpt>
      <trkpt lat="45.9118" lon="-0.95943">
        <ele>14</ele>
        <time>2013-06-09T08:00:46Z</time>
      </trkpt>
      <trkpt lat="45.9117" lon="-0.95942">
        <ele>14</ele>
        <time>2013-06-09T08:00:56Z</time>
      </trkpt>
      <trkpt lat="45.91161" lon="-0.95942">
        <ele>14</ele>
        <time>2013-06-09T08:01:04Z</time>
      </trkpt>
      <trkpt lat="45.91151" lon="-0.95944">
        <ele>14</ele>
        <time>2013-06-09T08:01:11Z</time>
      </trkpt>
      <trkpt lat="45.91142" lon="-0.95945">
        <ele>14</ele>
        <time>2013-06-09T08:01:20Z</time>
      </trkpt>
      <trkpt lat="45.91133" lon="-0.95945">
        <ele>14</ele>
        <time>2013-06-09T08:01:28Z</time>
      </trkpt>
      <trkpt lat="45.91123" lon="-0.95944">
        <ele>14</ele>
        <time>2013-06-09T08:01:37Z</time>
      </trkpt>
      <trkpt lat="45.91114" lon="-0.95946">
        <ele>14</ele>
        <time>2013-06-09T08:01:43Z</time>
      </trkpt>
      <trkpt lat="45.91104" lon="-0.95946">
        <ele>14</ele>
        <time>2013-06-09T08:01:53Z</time>
      </trkpt>
      <trkpt lat="45.91094" lon="-0.95945">
        <ele>14</ele>
        <time>2013-06-09T08:02:02Z</time>
      </trkpt>
      <trkpt lat="45.91085" lon="-0.95945">
        <ele>14</ele>
        <time>2013-06-09T08:02:10Z</time>
      </trkpt>
      <trkpt lat="45.91076" lon="-0.95946">
        <ele>14</ele>
        <time>2013-06-09T08:02:18Z</time>
      </trkpt>
      <trkpt lat="45.91066" lon="-0.95946">
        <ele>14</ele>
        <time>2013-06-09T08:02:27Z</time>
      </trkpt>
      <trkpt lat="45.91056" lon="-0.95948">
        <ele>14</ele>
        <time>2013-06-09T08:02:35Z</time>
      </trkpt>
      <trkpt lat="45.91046" lon="-0.95949">
        <ele>14</ele>
        <time>2013-06-09T08:02:44Z</time>
      </trkpt>
      <trkpt lat="45.91036" lon="-0.95948">
        <ele>14</ele>
        <time>2013-06-09T08:02:53Z</time>
      </trkpt>
      <trkpt lat="45.91027" lon="-0.95947">
        <ele>14</ele>
        <time>2013-06-09T08:03:02Z</time>
      </trkpt>
      <trkpt lat="45.91017" lon="-0.95949">
        <ele>14</ele>
        <time>2013-06-09T08:03:10Z</time>
      </trkpt>
      <trkpt lat="45.91008" lon="-0.95949">
        <ele>14</ele>
        <time>2013-06-09T08:03:19Z</time>
      </trkpt>
      <trkpt lat="45.90998" lon="-0.95948">
        <ele>14</ele>
        <time>2013-06-09T08:03:27Z</time>
      </trkpt>
      <trkpt lat="45.90988" lon="-0.95948">
        <ele>14</ele>
        <time>2013-06-09T08:03:36Z</time>
      </trkpt>
      <trkpt lat="45.90979" lon="-0.95947">
        <ele>14</ele>
        <time>2013-06-09T08:03:46Z</time>
      </trkpt>
      <trkpt lat="45.9097" lon="-0.95947">
        <ele>14</ele>
        <time>2013-06-09T08:03:55Z</time>
      </trkpt>
      <trkpt lat="45.9096" lon="-0.95948">
        <ele>14</ele>
        <time>2013-06-09T08:04:04Z</time>
      </trkpt>
      <trkpt lat="45.9095" lon="-0.95949">
        <ele>14</ele>
        <time>2013-06-09T08:04:12Z</time>
      </trkpt>
      <trkpt lat="45.9094" lon="-0.9595">
        <ele>14</ele>
        <time>2013-06-09T08:04:21Z</time>
      </trkpt>
      <trkpt lat="45.90931" lon="-0.95948">
        <ele>14</ele>
        <time>2013-06-09T08:04:31Z</time>
      </trkpt>
      <trkpt lat="45.90921" lon="-0.95947">
        <ele>14</ele>
        <time>2013-06-09T08:04:40Z</time>
      </trkpt>
      <trkpt lat="45.90911" lon="-0.95946">
        <ele>14</ele>
        <time>2013-06-09T08:04:48Z</time>
      </trkpt>
      <trkpt lat="45.90902" lon="-0.95943">
        <ele>14</ele>
        <time>2013-06-09T08:04:55Z</time>
      </trkpt>
      <trkpt lat="45.90895" lon="-0.95932">
        <ele>14</ele>
        <time>2013-06-09T08:05:04Z</time>
      </trkpt>
      <trkpt lat="45.90888" lon="-0.95922">
        <ele>14</ele>
        <time>2013-06-09T08:05:15Z</time>
      </trkpt>
      <trkpt lat="45.90882" lon="-0.95912">
        <ele>14</ele>
        <time>2013-06-09T08:05:23Z</time>
      </trkpt>
      <trkpt lat="45.90874" lon="-0.95903">
        <ele>14</ele>
        <time>2013-06-09T08:05:32Z</time>
      </trkpt>
      <trkpt lat="45.90867" lon="-0.95893">
        <ele>14</ele>
        <time>2013-06-09T08:05:41Z</time>
      </trkpt>
      <trkpt lat="45.90861" lon="-0.95882">
        <ele>14</ele>
        <time>2013-06-09T08:05:50Z</time>
      </trkpt>
      <trkpt lat="45.90856" lon="-0.9587">
        <ele>14</ele>
        <time>2013-06-09T08:05:59Z</time>
      </trkpt>
      <trkpt lat="45.90854" lon="-0.95857">
        <ele>14</ele>
        <time>2013-06-09T08:06:09Z</time>
      </trkpt>
      <trkpt lat="45.90855" lon="-0.95843">
        <ele>14</ele>
        <time>2013-06-09T08:06:19Z</time>
      </trkpt>
      <trkpt lat="45.90863" lon="-0.95834">
        <ele>14</ele>
        <time>2013-06-09T08:06:29Z</time>
      </trkpt>
      <trkpt lat="45.90871" lon="-0.95827">
        <ele>14</ele>
        <time>2013-06-09T08:06:48Z</time>
      </trkpt>
      <trkpt lat="45.90879" lon="-0.95819">
        <ele>14</ele>
        <time>2013-06-09T08:06:57Z</time>
      </trkpt>
      <trkpt lat="45.90887" lon="-0.95813">
        <ele>14</ele>
        <time>2013-06-09T08:07:05Z</time>
      </trkpt>
      <trkpt lat="45.90896" lon="-0.95806">
        <ele>14</ele>
        <time>2013-06-09T08:07:15Z</time>
      </trkpt>
      <trkpt lat="45.90906" lon="-0.95804">
        <ele>14</ele>
        <time>2013-06-09T08:07:28Z</time>
      </trkpt>
      <trkpt lat="45.90914" lon="-0.95795">
        <ele>14</ele>
        <time>2013-06-09T08:07:38Z</time>
      </trkpt>
      <trkpt lat="45.90921" lon="-0.95787">
        <ele>14</ele>
        <time>2013-06-09T08:07:47Z</time>
      </trkpt>
      <trkpt lat="45.90928" lon="-0.95778">
        <ele>14</ele>
        <time>2013-06-09T08:07:57Z</time>
      </trkpt>
      <trkpt lat="45.90936" lon="-0.95769">
        <ele>14</ele>
        <time>2013-06-09T08:08:07Z</time>
      </trkpt>
      <trkpt lat="45.90944" lon="-0.95761">
        <ele>14</ele>
        <time>2013-06-09T08:08:17Z</time>
      </trkpt>
      <trkpt lat="45.90951" lon="-0.95753">
        <ele>14</ele>
        <time>2013-06-09T08:08:26Z</time>
      </trkpt>
      <trkpt lat="45.90959" lon="-0.95744">
        <ele>14</ele>
        <time>2013-06-09T08:08:35Z</time>
      </trkpt>
      <trkpt lat="45.90967" lon="-0.95737">
        <ele>14</ele>
        <time>2013-06-09T08:08:43Z</time>
      </trkpt>
      <trkpt lat="45.90975" lon="-0.95729">
        <ele>14</ele>
        <time>2013-06-09T08:08:53Z</time>
      </trkpt>
      <trkpt lat="45.90983" lon="-0.95721">
        <ele>14</ele>
        <time>2013-06-09T08:09:01Z</time>
      </trkpt>
      <trkpt lat="45.90991" lon="-0.95713">
        <ele>14</ele>
        <time>2013-06-09T08:09:11Z</time>
      </trkpt>
      <trkpt lat="45.90998" lon="-0.95704">
        <ele>14</ele>
        <time>2013-06-09T08:09:19Z</time>
      </trkpt>
      <trkpt lat="45.91005" lon="-0.95694">
        <ele>14</ele>
        <time>2013-06-09T08:09:27Z</time>
      </trkpt>
      <trkpt lat="45.91014" lon="-0.95689">
        <ele>14</ele>
        <time>2013-06-09T08:09:36Z</time>
      </trkpt>
      <trkpt lat="45.91023" lon="-0.95682">
        <ele>14</ele>
        <time>2013-06-09T08:09:45Z</time>
      </trkpt>
      <trkpt lat="45.91031" lon="-0.95676">
        <ele>14</ele>
        <time>2013-06-09T08:09:55Z</time>
      </trkpt>
      <trkpt lat="45.91039" lon="-0.95669">
        <ele>14</ele>
        <time>2013-06-09T08:10:04Z</time>
      </trkpt>
      <trkpt lat="45.91047" lon="-0.95661">
        <ele>14</ele>
        <time>2013-06-09T08:10:12Z</time>
      </trkpt>
      <trkpt lat="45.91056" lon="-0.95654">
        <ele>14</ele>
        <time>2013-06-09T08:10:22Z</time>
      </trkpt>
      <trkpt lat="45.91063" lon="-0.95646">
        <ele>14</ele>
        <time>2013-06-09T08:10:31Z</time>
      </trkpt>
      <trkpt lat="45.91069" lon="-0.95636">
        <ele>14</ele>
        <time>2013-06-09T08:10:39Z</time>
      </trkpt>
      <trkpt lat="45.91079" lon="-0.95634">
        <ele>14</ele>
        <time>2013-06-09T08:10:59Z</time>
      </trkpt>
      <trkpt lat="45.91088" lon="-0.95628">
        <ele>14</ele>
        <time>2013-06-09T08:11:48Z</time>
      </trkpt>
      <trkpt lat="45.91094" lon="-0.95618">
        <ele>14</ele>
        <time>2013-06-09T08:13:10Z</time>
      </trkpt>
      <trkpt lat="45.91104" lon="-0.95612">
        <ele>14</ele>
        <time>2013-06-09T08:13:19Z</time>
      </trkpt>
      <trkpt lat="45.91111" lon="-0.95604">
        <ele>14</ele>
        <time>2013-06-09T08:13:28Z</time>
      </trkpt>
      <trkpt lat="45.91121" lon="-0.95601">
        <ele>14</ele>
        <time>2013-06-09T08:13:37Z</time>
      </trkpt>
      <trkpt lat="45.91135" lon="-0.956">
        <ele>9</ele>
        <time>2013-06-09T08:13:48Z</time>
      </trkpt>
      <trkpt lat="45.91144" lon="-0.95597">
        <ele>14</ele>
        <time>2013-06-09T08:13:53Z</time>
      </trkpt>
      <trkpt lat="45.91151" lon="-0.95588">
        <ele>14</ele>
        <time>2013-06-09T08:14:05Z</time>
      </trkpt>
      <trkpt lat="45.91159" lon="-0.95582">
        <ele>14</ele>
        <time>2013-06-09T08:14:13Z</time>
      </trkpt>
      <trkpt lat="45.91165" lon="-0.95569">
        <ele>14</ele>
        <time>2013-06-09T08:14:22Z</time>
      </trkpt>
      <trkpt lat="45.91172" lon="-0.95558">
        <ele>14</ele>
        <time>2013-06-09T08:14:32Z</time>
      </trkpt>
      <trkpt lat="45.91178" lon="-0.95547">
        <ele>14</ele>
        <time>2013-06-09T08:14:42Z</time>
      </trkpt>
      <trkpt lat="45.91185" lon="-0.95536">
        <ele>14</ele>
        <time>2013-06-09T08:14:52Z</time>
      </trkpt>
      <trkpt lat="45.9119" lon="-0.95525">
        <ele>14</ele>
        <time>2013-06-09T08:15:01Z</time>
      </trkpt>
      <trkpt lat="45.91196" lon="-0.95513">
        <ele>14</ele>
        <time>2013-06-09T08:15:10Z</time>
      </trkpt>
      <trkpt lat="45.912" lon="-0.95501">
        <ele>14</ele>
        <time>2013-06-09T08:15:18Z</time>
      </trkpt>
      <trkpt lat="45.91205" lon="-0.95489">
        <ele>14</ele>
        <time>2013-06-09T08:15:26Z</time>
      </trkpt>
      <trkpt lat="45.9121" lon="-0.95477">
        <ele>14</ele>
        <time>2013-06-09T08:15:35Z</time>
      </trkpt>
      <trkpt lat="45.91216" lon="-0.95466">
        <ele>14</ele>
        <time>2013-06-09T08:15:44Z</time>
      </trkpt>
      <trkpt lat="45.91222" lon="-0.95455">
        <ele>14</ele>
        <time>2013-06-09T08:15:52Z</time>
      </trkpt>
      <trkpt lat="45.91228" lon="-0.95443">
        <ele>14</ele>
        <time>2013-06-09T08:16:00Z</time>
      </trkpt>
      <trkpt lat="45.91235" lon="-0.95433">
        <ele>14</ele>
        <time>2013-06-09T08:16:08Z</time>
      </trkpt>
      <trkpt lat="45.91243" lon="-0.95426">
        <ele>14</ele>
        <time>2013-06-09T08:16:17Z</time>
      </trkpt>
      <trkpt lat="45.91249" lon="-0.95416">
        <ele>14</ele>
        <time>2013-06-09T08:16:24Z</time>
      </trkpt>
      <trkpt lat="45.91257" lon="-0.95408">
        <ele>14</ele>
        <time>2013-06-09T08:16:35Z</time>
      </trkpt>
      <trkpt lat="45.91264" lon="-0.954">
        <ele>20</ele>
        <time>2013-06-09T08:16:43Z</time>
      </trkpt>
      <trkpt lat="45.91273" lon="-0.95393">
        <ele>20</ele>
        <time>2013-06-09T08:16:51Z</time>
      </trkpt>
      <trkpt lat="45.91279" lon="-0.95381">
        <ele>14</ele>
        <time>2013-06-09T08:17:01Z</time>
      </trkpt>
      <trkpt lat="45.91283" lon="-0.95369">
        <ele>14</ele>
        <time>2013-06-09T08:17:10Z</time>
      </trkpt>
      <trkpt lat="45.91289" lon="-0.95359">
        <ele>14</ele>
        <time>2013-06-09T08:17:19Z</time>
      </trkpt>
      <trkpt lat="45.91296" lon="-0.95349">
        <ele>14</ele>
        <time>2013-06-09T08:17:28Z</time>
      </trkpt>
      <trkpt lat="45.91304" lon="-0.9534">
        <ele>14</ele>
        <time>2013-06-09T08:17:36Z</time>
      </trkpt>
      <trkpt lat="45.91308" lon="-0.95327">
        <ele>14</ele>
        <time>2013-06-09T08:17:44Z</time>
      </trkpt>
      <trkpt lat="45.91313" lon="-0.95315">
        <ele>14</ele>
        <time>2013-06-09T08:17:52Z</time>
      </trkpt>
      <trkpt lat="45.9132" lon="-0.95305">
        <ele>14</ele>
        <time>2013-06-09T08:18:01Z</time>
      </trkpt>
      <trkpt lat="45.91325" lon="-0.95292">
        <ele>14</ele>
        <time>2013-06-09T08:18:09Z</time>
      </trkpt>
      <trkpt lat="45.91329" lon="-0.95281">
        <ele>14</ele>
        <time>2013-06-09T08:18:17Z</time>
      </trkpt>
      <trkpt lat="45.91333" lon="-0.95268">
        <ele>14</ele>
        <time>2013-06-09T08:18:24Z</time>
      </trkpt>
      <trkpt lat="45.91338" lon="-0.95256">
        <ele>14</ele>
        <time>2013-06-09T08:18:33Z</time>
      </trkpt>
      <trkpt lat="45.91344" lon="-0.95243">
        <ele>14</ele>
        <time>2013-06-09T08:18:43Z</time>
      </trkpt>
      <trkpt lat="45.9135" lon="-0.95231">
        <ele>14</ele>
        <time>2013-06-09T08:18:53Z</time>
      </trkpt>
      <trkpt lat="45.91357" lon="-0.95221">
        <ele>14</ele>
        <time>2013-06-09T08:19:03Z</time>
      </trkpt>
      <trkpt lat="45.91365" lon="-0.95212">
        <ele>9</ele>
        <time>2013-06-09T08:19:12Z</time>
      </trkpt>
      <trkpt lat="45.91373" lon="-0.95204">
        <ele>9</ele>
        <time>2013-06-09T08:19:20Z</time>
      </trkpt>
      <trkpt lat="45.91381" lon="-0.95195">
        <ele>9</ele>
        <time>2013-06-09T08:19:29Z</time>
      </trkpt>
      <trkpt lat="45.9139" lon="-0.95189">
        <ele>9</ele>
        <time>2013-06-09T08:19:57Z</time>
      </trkpt>
      <trkpt lat="45.91394" lon="-0.95177">
        <ele>9</ele>
        <time>2013-06-09T08:20:10Z</time>
      </trkpt>
      <trkpt lat="45.91399" lon="-0.95166">
        <ele>9</ele>
        <time>2013-06-09T08:20:21Z</time>
      </trkpt>
      <trkpt lat="45.91402" lon="-0.95152">
        <ele>9</ele>
        <time>2013-06-09T08:20:32Z</time>
      </trkpt>
      <trkpt lat="45.91405" lon="-0.9514">
        <ele>9</ele>
        <time>2013-06-09T08:20:44Z</time>
      </trkpt>
      <trkpt lat="45.9141" lon="-0.95128">
        <ele>9</ele>
        <time>2013-06-09T08:20:55Z</time>
      </trkpt>
      <trkpt lat="45.91414" lon="-0.95115">
        <ele>9</ele>
        <time>2013-06-09T08:21:09Z</time>
      </trkpt>
      <trkpt lat="45.91417" lon="-0.95102">
        <ele>9</ele>
        <time>2013-06-09T08:21:18Z</time>
      </trkpt>
      <trkpt lat="45.91422" lon="-0.95089">
        <ele>9</ele>
        <time>2013-06-09T08:21:27Z</time>
      </trkpt>
      <trkpt lat="45.91424" lon="-0.95075">
        <ele>9</ele>
        <time>2013-06-09T08:21:36Z</time>
      </trkpt>
      <trkpt lat="45.91427" lon="-0.95062">
        <ele>9</ele>
        <time>2013-06-09T08:21:45Z</time>
      </trkpt>
      <trkpt lat="45.9143" lon="-0.95049">
        <ele>9</ele>
        <time>2013-06-09T08:21:55Z</time>
      </trkpt>
      <trkpt lat="45.91432" lon="-0.95035">
        <ele>9</ele>
        <time>2013-06-09T08:22:04Z</time>
      </trkpt>
      <trkpt lat="45.91434" lon="-0.95022">
        <ele>9</ele>
        <time>2013-06-09T08:22:12Z</time>
      </trkpt>
      <trkpt lat="45.91437" lon="-0.95009">
        <ele>9</ele>
        <time>2013-06-09T08:22:20Z</time>
      </trkpt>
      <trkpt lat="45.91439" lon="-0.94996">
        <ele>9</ele>
        <time>2013-06-09T08:22:29Z</time>
      </trkpt>
      <trkpt lat="45.91441" lon="-0.94982">
        <ele>9</ele>
        <time>2013-06-09T08:22:38Z</time>
      </trkpt>
      <trkpt lat="45.9144" lon="-0.94967">
        <ele>9</ele>
        <time>2013-06-09T08:22:46Z</time>
      </trkpt>
      <trkpt lat="45.91439" lon="-0.94953">
        <ele>9</ele>
        <time>2013-06-09T08:22:53Z</time>
      </trkpt>
      <trkpt lat="45.91438" lon="-0.94939">
        <ele>9</ele>
        <time>2013-06-09T08:23:03Z</time>
      </trkpt>
      <trkpt lat="45.91437" lon="-0.94925">
        <ele>9</ele>
        <time>2013-06-09T08:23:11Z</time>
      </trkpt>
      <trkpt lat="45.91436" lon="-0.94912">
        <ele>9</ele>
        <time>2013-06-09T08:23:20Z</time>
      </trkpt>
      <trkpt lat="45.91434" lon="-0.94898">
        <ele>9</ele>
        <time>2013-06-09T08:23:29Z</time>
      </trkpt>
      <trkpt lat="45.91432" lon="-0.94885">
        <ele>9</ele>
        <time>2013-06-09T08:23:37Z</time>
      </trkpt>
      <trkpt lat="45.91431" lon="-0.94871">
        <ele>9</ele>
        <time>2013-06-09T08:23:46Z</time>
      </trkpt>
      <trkpt lat="45.91429" lon="-0.94858">
        <ele>9</ele>
        <time>2013-06-09T08:23:55Z</time>
      </trkpt>
      <trkpt lat="45.91427" lon="-0.94844">
        <ele>9</ele>
        <time>2013-06-09T08:24:03Z</time>
      </trkpt>
      <trkpt lat="45.91425" lon="-0.9483">
        <ele>9</ele>
        <time>2013-06-09T08:24:11Z</time>
      </trkpt>
      <trkpt lat="45.91423" lon="-0.94815">
        <ele>9</ele>
        <time>2013-06-09T08:24:19Z</time>
      </trkpt>
      <trkpt lat="45.91421" lon="-0.94802">
        <ele>9</ele>
        <time>2013-06-09T08:24:27Z</time>
      </trkpt>
      <trkpt lat="45.91419" lon="-0.94789">
        <ele>9</ele>
        <time>2013-06-09T08:24:34Z</time>
      </trkpt>
      <trkpt lat="45.91417" lon="-0.94775">
        <ele>9</ele>
        <time>2013-06-09T08:24:43Z</time>
      </trkpt>
      <trkpt lat="45.91416" lon="-0.9476">
        <ele>9</ele>
        <time>2013-06-09T08:24:52Z</time>
      </trkpt>
      <trkpt lat="45.91415" lon="-0.94746">
        <ele>9</ele>
        <time>2013-06-09T08:25:01Z</time>
      </trkpt>
      <trkpt lat="45.91413" lon="-0.94733">
        <ele>9</ele>
        <time>2013-06-09T08:25:09Z</time>
      </trkpt>
      <trkpt lat="45.91411" lon="-0.94719">
        <ele>9</ele>
        <time>2013-06-09T08:25:18Z</time>
      </trkpt>
      <trkpt lat="45.91409" lon="-0.94705">
        <ele>9</ele>
        <time>2013-06-09T08:25:27Z</time>
      </trkpt>
      <trkpt lat="45.91407" lon="-0.94691">
        <ele>9</ele>
        <time>2013-06-09T08:25:36Z</time>
      </trkpt>
      <trkpt lat="45.91405" lon="-0.94678">
        <ele>9</ele>
        <time>2013-06-09T08:25:45Z</time>
      </trkpt>
      <trkpt lat="45.914" lon="-0.94666">
        <ele>9</ele>
        <time>2013-06-09T08:25:54Z</time>
      </trkpt>
      <trkpt lat="45.91391" lon="-0.94668">
        <ele>9</ele>
        <time>2013-06-09T08:26:05Z</time>
      </trkpt>
      <trkpt lat="45.91382" lon="-0.94672">
        <ele>9</ele>
        <time>2013-06-09T08:26:14Z</time>
      </trkpt>
      <trkpt lat="45.91373" lon="-0.94675">
        <ele>9</ele>
        <time>2013-06-09T08:26:24Z</time>
      </trkpt>
      <trkpt lat="45.91363" lon="-0.94678">
        <ele>9</ele>
        <time>2013-06-09T08:26:36Z</time>
      </trkpt>
      <trkpt lat="45.91354" lon="-0.94681">
        <ele>14</ele>
        <time>2013-06-09T08:26:47Z</time>
      </trkpt>
      <trkpt lat="45.91345" lon="-0.94685">
        <ele>14</ele>
        <time>2013-06-09T08:26:56Z</time>
      </trkpt>
      <trkpt lat="45.91335" lon="-0.94689">
        <ele>14</ele>
        <time>2013-06-09T08:27:06Z</time>
      </trkpt>
      <trkpt lat="45.91326" lon="-0.94692">
        <ele>14</ele>
        <time>2013-06-09T08:27:17Z</time>
      </trkpt>
      <trkpt lat="45.91316" lon="-0.94697">
        <ele>14</ele>
        <time>2013-06-09T08:27:26Z</time>
      </trkpt>
      <trkpt lat="45.91307" lon="-0.947">
        <ele>14</ele>
        <time>2013-06-09T08:27:37Z</time>
      </trkpt>
      <trkpt lat="45.91298" lon="-0.94703">
        <ele>14</ele>
        <time>2013-06-09T08:27:46Z</time>
      </trkpt>
      <trkpt lat="45.91289" lon="-0.94706">
        <ele>14</ele>
        <time>2013-06-09T08:27:56Z</time>
      </trkpt>
      <trkpt lat="45.91279" lon="-0.94709">
        <ele>14</ele>
        <time>2013-06-09T08:28:04Z</time>
      </trkpt>
      <trkpt lat="45.91271" lon="-0.94713">
        <ele>14</ele>
        <time>2013-06-09T08:28:15Z</time>
      </trkpt>
      <trkpt lat="45.91261" lon="-0.94716">
        <ele>14</ele>
        <time>2013-06-09T08:28:24Z</time>
      </trkpt>
      <trkpt lat="45.91251" lon="-0.94718">
        <ele>14</ele>
        <time>2013-06-09T08:28:34Z</time>
      </trkpt>
      <trkpt lat="45.91242" lon="-0.94722">
        <ele>14</ele>
        <time>2013-06-09T08:28:43Z</time>
      </trkpt>
      <trkpt lat="45.91232" lon="-0.94725">
        <ele>14</ele>
        <time>2013-06-09T08:28:53Z</time>
      </trkpt>
      <trkpt lat="45.91223" lon="-0.94726">
        <ele>14</ele>
        <time>2013-06-09T08:29:09Z</time>
      </trkpt>
      <trkpt lat="45.91214" lon="-0.94731">
        <ele>14</ele>
        <time>2013-06-09T08:29:13Z</time>
      </trkpt>
      <trkpt lat="45.91205" lon="-0.94733">
        <ele>14</ele>
        <time>2013-06-09T08:29:21Z</time>
      </trkpt>
      <trkpt lat="45.91196" lon="-0.94736">
        <ele>14</ele>
        <time>2013-06-09T08:29:30Z</time>
      </trkpt>
      <trkpt lat="45.91187" lon="-0.94741">
        <ele>14</ele>
        <time>2013-06-09T08:29:39Z</time>
      </trkpt>
      <trkpt lat="45.91178" lon="-0.94745">
        <ele>14</ele>
        <time>2013-06-09T08:29:47Z</time>
      </trkpt>
      <trkpt lat="45.9117" lon="-0.94752">
        <ele>19</ele>
        <time>2013-06-09T08:29:56Z</time>
      </trkpt>
      <trkpt lat="45.91161" lon="-0.94757">
        <ele>19</ele>
        <time>2013-06-09T08:30:06Z</time>
      </trkpt>
      <trkpt lat="45.91153" lon="-0.94763">
        <ele>19</ele>
        <time>2013-06-09T08:30:15Z</time>
      </trkpt>
      <trkpt lat="45.91145" lon="-0.94771">
        <ele>19</ele>
        <time>2013-06-09T08:30:26Z</time>
      </trkpt>
      <trkpt lat="45.91136" lon="-0.94777">
        <ele>19</ele>
        <time>2013-06-09T08:30:35Z</time>
      </trkpt>
      <trkpt lat="45.91128" lon="-0.94784">
        <ele>19</ele>
        <time>2013-06-09T08:30:43Z</time>
      </trkpt>
      <trkpt lat="45.91121" lon="-0.94792">
        <ele>19</ele>
        <time>2013-06-09T08:30:53Z</time>
      </trkpt>
      <trkpt lat="45.91113" lon="-0.94798">
        <ele>19</ele>
        <time>2013-06-09T08:31:00Z</time>
      </trkpt>
      <trkpt lat="45.91103" lon="-0.94802">
        <ele>19</ele>
        <time>2013-06-09T08:31:12Z</time>
      </trkpt>
      <trkpt lat="45.91094" lon="-0.94805">
        <ele>19</ele>
        <time>2013-06-09T08:31:22Z</time>
      </trkpt>
      <trkpt lat="45.91084" lon="-0.94805">
        <ele>19</ele>
        <time>2013-06-09T08:31:32Z</time>
      </trkpt>
      <trkpt lat="45.91074" lon="-0.94806">
        <ele>19</ele>
        <time>2013-06-09T08:31:40Z</time>
      </trkpt>
      <trkpt lat="45.91065" lon="-0.94809">
        <ele>19</ele>
        <time>2013-06-09T08:31:47Z</time>
      </trkpt>
      <trkpt lat="45.91055" lon="-0.94811">
        <ele>19</ele>
        <time>2013-06-09T08:31:56Z</time>
      </trkpt>
      <trkpt lat="45.91046" lon="-0.94814">
        <ele>19</ele>
        <time>2013-06-09T08:32:05Z</time>
      </trkpt>
      <trkpt lat="45.91037" lon="-0.94818">
        <ele>19</ele>
        <time>2013-06-09T08:32:15Z</time>
      </trkpt>
      <trkpt lat="45.91028" lon="-0.94822">
        <ele>19</ele>
        <time>2013-06-09T08:32:23Z</time>
      </trkpt>
      <trkpt lat="45.91019" lon="-0.94825">
        <ele>19</ele>
        <time>2013-06-09T08:32:31Z</time>
      </trkpt>
      <trkpt lat="45.9101" lon="-0.9483">
        <ele>13</ele>
        <time>2013-06-09T08:32:41Z</time>
      </trkpt>
      <trkpt lat="45.91" lon="-0.94832">
        <ele>13</ele>
        <time>2013-06-09T08:32:50Z</time>
      </trkpt>
      <trkpt lat="45.9099" lon="-0.94835">
        <ele>13</ele>
        <time>2013-06-09T08:33:00Z</time>
      </trkpt>
      <trkpt lat="45.90982" lon="-0.94839">
        <ele>13</ele>
        <time>2013-06-09T08:33:08Z</time>
      </trkpt>
      <trkpt lat="45.90972" lon="-0.94842">
        <ele>13</ele>
        <time>2013-06-09T08:33:17Z</time>
      </trkpt>
      <trkpt lat="45.90963" lon="-0.94847">
        <ele>13</ele>
        <time>2013-06-09T08:33:27Z</time>
      </trkpt>
      <trkpt lat="45.90953" lon="-0.9485">
        <ele>13</ele>
        <time>2013-06-09T08:33:36Z</time>
      </trkpt>
      <trkpt lat="45.90944" lon="-0.94855">
        <ele>13</ele>
        <time>2013-06-09T08:33:44Z</time>
      </trkpt>
      <trkpt lat="45.90935" lon="-0.94859">
        <ele>13</ele>
        <time>2013-06-09T08:33:52Z</time>
      </trkpt>
      <trkpt lat="45.90925" lon="-0.94862">
        <ele>13</ele>
        <time>2013-06-09T08:34:02Z</time>
      </trkpt>
      <trkpt lat="45.90916" lon="-0.94868">
        <ele>13</ele>
        <time>2013-06-09T08:34:12Z</time>
      </trkpt>
      <trkpt lat="45.90907" lon="-0.94877">
        <ele>18</ele>
        <time>2013-06-09T08:34:20Z</time>
      </trkpt>
      <trkpt lat="45.90899" lon="-0.94886">
        <ele>18</ele>
        <time>2013-06-09T08:34:28Z</time>
      </trkpt>
      <trkpt lat="45.9089" lon="-0.94887">
        <ele>18</ele>
        <time>2013-06-09T08:34:39Z</time>
      </trkpt>
      <trkpt lat="45.9088" lon="-0.9489">
        <ele>18</ele>
        <time>2013-06-09T08:34:49Z</time>
      </trkpt>
      <trkpt lat="45.90871" lon="-0.94895">
        <ele>18</ele>
        <time>2013-06-09T08:34:57Z</time>
      </trkpt>
      <trkpt lat="45.90862" lon="-0.94901">
        <ele>18</ele>
        <time>2013-06-09T08:35:07Z</time>
      </trkpt>
      <trkpt lat="45.90854" lon="-0.94905">
        <ele>18</ele>
        <time>2013-06-09T08:35:16Z</time>
      </trkpt>
      <trkpt lat="45.90845" lon="-0.94912">
        <ele>18</ele>
        <time>2013-06-09T08:35:23Z</time>
      </trkpt>
      <trkpt lat="45.90836" lon="-0.94917">
        <ele>18</ele>
        <time>2013-06-09T08:35:32Z</time>
      </trkpt>
      <trkpt lat="45.90827" lon="-0.94921">
        <ele>18</ele>
        <time>2013-06-09T08:35:41Z</time>
      </trkpt>
      <trkpt lat="45.90819" lon="-0.94926">
        <ele>18</ele>
        <time>2013-06-09T08:35:51Z</time>
      </trkpt>
      <trkpt lat="45.9081" lon="-0.94931">
        <ele>18</ele>
        <time>2013-06-09T08:36:00Z</time>
      </trkpt>
      <trkpt lat="45.908" lon="-0.94936">
        <ele>18</ele>
        <time>2013-06-09T08:36:10Z</time>
      </trkpt>
      <trkpt lat="45.90791" lon="-0.94941">
        <ele>18</ele>
        <time>2013-06-09T08:36:19Z</time>
      </trkpt>
      <trkpt lat="45.90782" lon="-0.94945">
        <ele>18</ele>
        <time>2013-06-09T08:36:28Z</time>
      </trkpt>
      <trkpt lat="45.90773" lon="-0.9495">
        <ele>18</ele>
        <time>2013-06-09T08:36:37Z</time>
      </trkpt>
      <trkpt lat="45.90764" lon="-0.94955">
        <ele>18</ele>
        <time>2013-06-09T08:36:46Z</time>
      </trkpt>
      <trkpt lat="45.90756" lon="-0.94961">
        <ele>18</ele>
        <time>2013-06-09T08:37:05Z</time>
      </trkpt>
      <trkpt lat="45.90747" lon="-0.94965">
        <ele>18</ele>
        <time>2013-06-09T08:37:14Z</time>
      </trkpt>
      <trkpt lat="45.90738" lon="-0.94969">
        <ele>18</ele>
        <time>2013-06-09T08:37:23Z</time>
      </trkpt>
      <trkpt lat="45.90729" lon="-0.94973">
        <ele>18</ele>
        <time>2013-06-09T08:37:31Z</time>
      </trkpt>
      <trkpt lat="45.90721" lon="-0.94977">
        <ele>18</ele>
        <time>2013-06-09T08:37:39Z</time>
      </trkpt>
      <trkpt lat="45.90711" lon="-0.94981">
        <ele>18</ele>
        <time>2013-06-09T08:37:48Z</time>
      </trkpt>
      <trkpt lat="45.90702" lon="-0.94985">
        <ele>18</ele>
        <time>2013-06-09T08:37:57Z</time>
      </trkpt>
      <trkpt lat="45.90692" lon="-0.94991">
        <ele>18</ele>
        <time>2013-06-09T08:38:05Z</time>
      </trkpt>
      <trkpt lat="45.90683" lon="-0.94996">
        <ele>18</ele>
        <time>2013-06-09T08:38:14Z</time>
      </trkpt>
      <trkpt lat="45.90674" lon="-0.95">
        <ele>18</ele>
        <time>2013-06-09T08:38:22Z</time>
      </trkpt>
      <trkpt lat="45.90666" lon="-0.95004">
        <ele>18</ele>
        <time>2013-06-09T08:38:30Z</time>
      </trkpt>
      <trkpt lat="45.90655" lon="-0.95007">
        <ele>18</ele>
        <time>2013-06-09T08:38:40Z</time>
      </trkpt>
      <trkpt lat="45.90646" lon="-0.95012">
        <ele>18</ele>
        <time>2013-06-09T08:38:49Z</time>
      </trkpt>
      <trkpt lat="45.90636" lon="-0.95016">
        <ele>18</ele>
        <time>2013-06-09T08:38:58Z</time>
      </trkpt>
      <trkpt lat="45.90627" lon="-0.95018">
        <ele>18</ele>
        <time>2013-06-09T08:39:07Z</time>
      </trkpt>
      <trkpt lat="45.90618" lon="-0.95022">
        <ele>18</ele>
        <time>2013-06-09T08:39:15Z</time>
      </trkpt>
      <trkpt lat="45.90608" lon="-0.95025">
        <ele>18</ele>
        <time>2013-06-09T08:39:24Z</time>
      </trkpt>
      <trkpt lat="45.906" lon="-0.95028">
        <ele>18</ele>
        <time>2013-06-09T08:39:33Z</time>
      </trkpt>
      <trkpt lat="45.90591" lon="-0.95032">
        <ele>18</ele>
        <time>2013-06-09T08:39:41Z</time>
      </trkpt>
      <trkpt lat="45.90582" lon="-0.95036">
        <ele>18</ele>
        <time>2013-06-09T08:39:49Z</time>
      </trkpt>
      <trkpt lat="45.90573" lon="-0.95039">
        <ele>18</ele>
        <time>2013-06-09T08:39:58Z</time>
      </trkpt>
      <trkpt lat="45.90564" lon="-0.95043">
        <ele>18</ele>
        <time>2013-06-09T08:40:06Z</time>
      </trkpt>
      <trkpt lat="45.90554" lon="-0.95045">
        <ele>18</ele>
        <time>2013-06-09T08:40:16Z</time>
      </trkpt>
      <trkpt lat="45.90544" lon="-0.95049">
        <ele>18</ele>
        <time>2013-06-09T08:40:25Z</time>
      </trkpt>
      <trkpt lat="45.90536" lon="-0.95053">
        <ele>18</ele>
        <time>2013-06-09T08:40:34Z</time>
      </trkpt>
      <trkpt lat="45.90526" lon="-0.95056">
        <ele>18</ele>
        <time>2013-06-09T08:40:43Z</time>
      </trkpt>
      <trkpt lat="45.90518" lon="-0.9506">
        <ele>18</ele>
        <time>2013-06-09T08:40:51Z</time>
      </trkpt>
      <trkpt lat="45.90509" lon="-0.95063">
        <ele>18</ele>
        <time>2013-06-09T08:40:59Z</time>
      </trkpt>
      <trkpt lat="45.905" lon="-0.95068">
        <ele>18</ele>
        <time>2013-06-09T08:41:08Z</time>
      </trkpt>
      <trkpt lat="45.90491" lon="-0.95073">
        <ele>18</ele>
        <time>2013-06-09T08:41:16Z</time>
      </trkpt>
      <trkpt lat="45.90482" lon="-0.95079">
        <ele>18</ele>
        <time>2013-06-09T08:41:25Z</time>
      </trkpt>
      <trkpt lat="45.90473" lon="-0.95085">
        <ele>18</ele>
        <time>2013-06-09T08:41:34Z</time>
      </trkpt>
      <trkpt lat="45.90464" lon="-0.95091">
        <ele>18</ele>
        <time>2013-06-09T08:41:42Z</time>
      </trkpt>
      <trkpt lat="45.90455" lon="-0.95096">
        <ele>18</ele>
        <time>2013-06-09T08:41:51Z</time>
      </trkpt>
      <trkpt lat="45.90446" lon="-0.95101">
        <ele>18</ele>
        <time>2013-06-09T08:42:00Z</time>
      </trkpt>
      <trkpt lat="45.90437" lon="-0.95107">
        <ele>18</ele>
        <time>2013-06-09T08:42:10Z</time>
      </trkpt>
      <trkpt lat="45.90428" lon="-0.95114">
        <ele>18</ele>
        <time>2013-06-09T08:42:19Z</time>
      </trkpt>
      <trkpt lat="45.9042" lon="-0.9512">
        <ele>18</ele>
        <time>2013-06-09T08:42:27Z</time>
      </trkpt>
      <trkpt lat="45.90412" lon="-0.95126">
        <ele>18</ele>
        <time>2013-06-09T08:42:35Z</time>
      </trkpt>
      <trkpt lat="45.90403" lon="-0.95133">
        <ele>18</ele>
        <time>2013-06-09T08:42:45Z</time>
      </trkpt>
      <trkpt lat="45.90395" lon="-0.95139">
        <ele>18</ele>
        <time>2013-06-09T08:42:54Z</time>
      </trkpt>
      <trkpt lat="45.90385" lon="-0.95143">
        <ele>18</ele>
        <time>2013-06-09T08:43:05Z</time>
      </trkpt>
      <trkpt lat="45.90376" lon="-0.9515">
        <ele>18</ele>
        <time>2013-06-09T08:43:14Z</time>
      </trkpt>
      <trkpt lat="45.90366" lon="-0.95153">
        <ele>18</ele>
        <time>2013-06-09T08:43:23Z</time>
      </trkpt>
      <trkpt lat="45.90357" lon="-0.95156">
        <ele>18</ele>
        <time>2013-06-09T08:43:31Z</time>
      </trkpt>
      <trkpt lat="45.90347" lon="-0.95158">
        <ele>18</ele>
        <time>2013-06-09T08:43:40Z</time>
      </trkpt>
      <trkpt lat="45.90337" lon="-0.95159">
        <ele>18</ele>
        <time>2013-06-09T08:43:49Z</time>
      </trkpt>
      <trkpt lat="45.90327" lon="-0.95157">
        <ele>18</ele>
        <time>2013-06-09T08:43:58Z</time>
      </trkpt>
      <trkpt lat="45.90317" lon="-0.95157">
        <ele>18</ele>
        <time>2013-06-09T08:44:07Z</time>
      </trkpt>
      <trkpt lat="45.90309" lon="-0.95152">
        <ele>18</ele>
        <time>2013-06-09T08:44:15Z</time>
      </trkpt>
      <trkpt lat="45.90301" lon="-0.95146">
        <ele>18</ele>
        <time>2013-06-09T08:44:23Z</time>
      </trkpt>
      <trkpt lat="45.90292" lon="-0.95141">
        <ele>18</ele>
        <time>2013-06-09T08:44:31Z</time>
      </trkpt>
      <trkpt lat="45.90284" lon="-0.95133">
        <ele>18</ele>
        <time>2013-06-09T08:44:40Z</time>
      </trkpt>
      <trkpt lat="45.90275" lon="-0.95127">
        <ele>18</ele>
        <time>2013-06-09T08:44:48Z</time>
      </trkpt>
      <trkpt lat="45.90267" lon="-0.9512">
        <ele>18</ele>
        <time>2013-06-09T08:44:57Z</time>
      </trkpt>
      <trkpt lat="45.90258" lon="-0.95114">
        <ele>18</ele>
        <time>2013-06-09T08:45:06Z</time>
      </trkpt>
      <trkpt lat="45.9025" lon="-0.95108">
        <ele>18</ele>
        <time>2013-06-09T08:45:14Z</time>
      </trkpt>
      <trkpt lat="45.90242" lon="-0.95102">
        <ele>18</ele>
        <time>2013-06-09T08:45:22Z</time>
      </trkpt>
      <trkpt lat="45.90232" lon="-0.95096">
        <ele>18</ele>
        <time>2013-06-09T08:45:31Z</time>
      </trkpt>
      <trkpt lat="45.90227" lon="-0.95083">
        <ele>13</ele>
        <time>2013-06-09T08:45:40Z</time>
      </trkpt>
      <trkpt lat="45.90222" lon="-0.95071">
        <ele>13</ele>
        <time>2013-06-09T08:45:48Z</time>
      </trkpt>
      <trkpt lat="45.90215" lon="-0.9506">
        <ele>13</ele>
        <time>2013-06-09T08:45:56Z</time>
      </trkpt>
      <trkpt lat="45.90209" lon="-0.95049">
        <ele>13</ele>
        <time>2013-06-09T08:46:04Z</time>
      </trkpt>
      <trkpt lat="45.90204" lon="-0.95037">
        <ele>13</ele>
        <time>2013-06-09T08:46:13Z</time>
      </trkpt>
      <trkpt lat="45.90199" lon="-0.95026">
        <ele>13</ele>
        <time>2013-06-09T08:46:21Z</time>
      </trkpt>
      <trkpt lat="45.90193" lon="-0.95015">
        <ele>13</ele>
        <time>2013-06-09T08:46:29Z</time>
      </trkpt>
      <trkpt lat="45.90188" lon="-0.95003">
        <ele>13</ele>
        <time>2013-06-09T08:46:38Z</time>
      </trkpt>
      <trkpt lat="45.90182" lon="-0.94992">
        <ele>13</ele>
        <time>2013-06-09T08:46:45Z</time>
      </trkpt>
      <trkpt lat="45.90176" lon="-0.9498">
        <ele>13</ele>
        <time>2013-06-09T08:46:54Z</time>
      </trkpt>
      <trkpt lat="45.90171" lon="-0.94967">
        <ele>13</ele>
        <time>2013-06-09T08:47:03Z</time>
      </trkpt>
      <trkpt lat="45.90169" lon="-0.94955">
        <ele>13</ele>
        <time>2013-06-09T08:47:12Z</time>
      </trkpt>
      <trkpt lat="45.90166" lon="-0.94941">
        <ele>13</ele>
        <time>2013-06-09T08:47:20Z</time>
      </trkpt>
      <trkpt lat="45.90165" lon="-0.94928">
        <ele>13</ele>
        <time>2013-06-09T08:47:31Z</time>
      </trkpt>
      <trkpt lat="45.90163" lon="-0.94913">
        <ele>13</ele>
        <time>2013-06-09T08:47:40Z</time>
      </trkpt>
      <trkpt lat="45.90163" lon="-0.949">
        <ele>13</ele>
        <time>2013-06-09T08:47:49Z</time>
      </trkpt>
      <trkpt lat="45.90162" lon="-0.94886">
        <ele>13</ele>
        <time>2013-06-09T08:49:07Z</time>
      </trkpt>
      <trkpt lat="45.90163" lon="-0.94873">
        <ele>13</ele>
        <time>2013-06-09T08:49:23Z</time>
      </trkpt>
      <trkpt lat="45.90169" lon="-0.94862">
        <ele>13</ele>
        <time>2013-06-09T08:49:32Z</time>
      </trkpt>
      <trkpt lat="45.90174" lon="-0.94849">
        <ele>13</ele>
        <time>2013-06-09T08:49:39Z</time>
      </trkpt>
      <trkpt lat="45.90179" lon="-0.94837">
        <ele>13</ele>
        <time>2013-06-09T08:49:49Z</time>
      </trkpt>
      <trkpt lat="45.90183" lon="-0.94824">
        <ele>13</ele>
        <time>2013-06-09T08:49:58Z</time>
      </trkpt>
      <trkpt lat="45.90186" lon="-0.94811">
        <ele>13</ele>
        <time>2013-06-09T08:50:09Z</time>
      </trkpt>
      <trkpt lat="45.9019" lon="-0.94799">
        <ele>13</ele>
        <time>2013-06-09T08:50:21Z</time>
      </trkpt>
      <trkpt lat="45.90195" lon="-0.94788">
        <ele>13</ele>
        <time>2013-06-09T08:50:30Z</time>
      </trkpt>
      <trkpt lat="45.90198" lon="-0.94775">
        <ele>13</ele>
        <time>2013-06-09T08:50:38Z</time>
      </trkpt>
      <trkpt lat="45.90201" lon="-0.94762">
        <ele>13</ele>
        <time>2013-06-09T08:50:46Z</time>
      </trkpt>
      <trkpt lat="45.90202" lon="-0.94746">
        <ele>13</ele>
        <time>2013-06-09T08:50:54Z</time>
      </trkpt>
      <trkpt lat="45.90205" lon="-0.94734">
        <ele>13</ele>
        <time>2013-06-09T08:51:05Z</time>
      </trkpt>
      <trkpt lat="45.90208" lon="-0.9472">
        <ele>8</ele>
        <time>2013-06-09T08:51:14Z</time>
      </trkpt>
      <trkpt lat="45.90209" lon="-0.94706">
        <ele>8</ele>
        <time>2013-06-09T08:51:24Z</time>
      </trkpt>
      <trkpt lat="45.90212" lon="-0.94692">
        <ele>8</ele>
        <time>2013-06-09T08:51:31Z</time>
      </trkpt>
      <trkpt lat="45.90211" lon="-0.94678">
        <ele>8</ele>
        <time>2013-06-09T08:51:38Z</time>
      </trkpt>
      <trkpt lat="45.90215" lon="-0.94665">
        <ele>8</ele>
        <time>2013-06-09T08:51:46Z</time>
      </trkpt>
      <trkpt lat="45.90219" lon="-0.94652">
        <ele>13</ele>
        <time>2013-06-09T08:51:57Z</time>
      </trkpt>
      <trkpt lat="45.90225" lon="-0.9464">
        <ele>13</ele>
        <time>2013-06-09T08:52:05Z</time>
      </trkpt>
      <trkpt lat="45.90226" lon="-0.94626">
        <ele>13</ele>
        <time>2013-06-09T08:52:13Z</time>
      </trkpt>
      <trkpt lat="45.90229" lon="-0.94613">
        <ele>7</ele>
        <time>2013-06-09T08:52:21Z</time>
      </trkpt>
      <trkpt lat="45.90233" lon="-0.946">
        <ele>7</ele>
        <time>2013-06-09T08:52:30Z</time>
      </trkpt>
      <trkpt lat="45.90235" lon="-0.94586">
        <ele>13</ele>
        <time>2013-06-09T08:52:39Z</time>
      </trkpt>
      <trkpt lat="45.90236" lon="-0.94573">
        <ele>13</ele>
        <time>2013-06-09T08:52:47Z</time>
      </trkpt>
      <trkpt lat="45.90237" lon="-0.94559">
        <ele>13</ele>
        <time>2013-06-09T08:52:55Z</time>
      </trkpt>
      <trkpt lat="45.9024" lon="-0.94545">
        <ele>13</ele>
        <time>2013-06-09T08:53:04Z</time>
      </trkpt>
      <trkpt lat="45.90242" lon="-0.94532">
        <ele>13</ele>
        <time>2013-06-09T08:53:14Z</time>
      </trkpt>
      <trkpt lat="45.90243" lon="-0.94518">
        <ele>13</ele>
        <time>2013-06-09T08:53:22Z</time>
      </trkpt>
      <trkpt lat="45.90244" lon="-0.94505">
        <ele>13</ele>
        <time>2013-06-09T08:53:31Z</time>
      </trkpt>
      <trkpt lat="45.90241" lon="-0.94491">
        <ele>13</ele>
        <time>2013-06-09T08:53:40Z</time>
      </trkpt>
      <trkpt lat="45.90235" lon="-0.9448">
        <ele>13</ele>
        <time>2013-06-09T08:53:44Z</time>
      </trkpt>
      <trkpt lat="45.90227" lon="-0.94471">
        <ele>13</ele>
        <time>2013-06-09T08:53:52Z</time>
      </trkpt>
      <trkpt lat="45.90218" lon="-0.94464">
        <ele>13</ele>
        <time>2013-06-09T08:54:00Z</time>
      </trkpt>
      <trkpt lat="45.9021" lon="-0.94457">
        <ele>13</ele>
        <time>2013-06-09T08:54:09Z</time>
      </trkpt>
      <trkpt lat="45.90201" lon="-0.94451">
        <ele>13</ele>
        <time>2013-06-09T08:54:17Z</time>
      </trkpt>
      <trkpt lat="45.90193" lon="-0.94444">
        <ele>13</ele>
        <time>2013-06-09T08:54:26Z</time>
      </trkpt>
      <trkpt lat="45.90184" lon="-0.94438">
        <ele>7</ele>
        <time>2013-06-09T08:54:34Z</time>
      </trkpt>
      <trkpt lat="45.90176" lon="-0.94432">
        <ele>7</ele>
        <time>2013-06-09T08:54:43Z</time>
      </trkpt>
      <trkpt lat="45.90168" lon="-0.94426">
        <ele>7</ele>
        <time>2013-06-09T08:54:50Z</time>
      </trkpt>
      <trkpt lat="45.90159" lon="-0.94419">
        <ele>7</ele>
        <time>2013-06-09T08:54:56Z</time>
      </trkpt>
      <trkpt lat="45.90151" lon="-0.94414">
        <ele>7</ele>
        <time>2013-06-09T08:55:05Z</time>
      </trkpt>
      <trkpt lat="45.90142" lon="-0.94408">
        <ele>7</ele>
        <time>2013-06-09T08:55:15Z</time>
      </trkpt>
      <trkpt lat="45.90133" lon="-0.94403">
        <ele>7</ele>
        <time>2013-06-09T08:55:23Z</time>
      </trkpt>
      <trkpt lat="45.90125" lon="-0.94397">
        <ele>7</ele>
        <time>2013-06-09T08:55:31Z</time>
      </trkpt>
      <trkpt lat="45.90116" lon="-0.94392">
        <ele>7</ele>
        <time>2013-06-09T08:55:39Z</time>
      </trkpt>
      <trkpt lat="45.90107" lon="-0.94388">
        <ele>7</ele>
        <time>2013-06-09T08:55:47Z</time>
      </trkpt>
      <trkpt lat="45.90099" lon="-0.94382">
        <ele>13</ele>
        <time>2013-06-09T08:55:54Z</time>
      </trkpt>
      <trkpt lat="45.90094" lon="-0.94371">
        <ele>13</ele>
        <time>2013-06-09T08:56:02Z</time>
      </trkpt>
      <trkpt lat="45.90095" lon="-0.94357">
        <ele>13</ele>
        <time>2013-06-09T08:56:10Z</time>
      </trkpt>
      <trkpt lat="45.90096" lon="-0.94344">
        <ele>13</ele>
        <time>2013-06-09T08:56:20Z</time>
      </trkpt>
      <trkpt lat="45.90099" lon="-0.94329">
        <ele>13</ele>
        <time>2013-06-09T08:56:28Z</time>
      </trkpt>
      <trkpt lat="45.90101" lon="-0.94317">
        <ele>7</ele>
        <time>2013-06-09T08:56:37Z</time>
      </trkpt>
      <trkpt lat="45.90103" lon="-0.94303">
        <ele>7</ele>
        <time>2013-06-09T08:56:46Z</time>
      </trkpt>
      <trkpt lat="45.90107" lon="-0.9429">
        <ele>7</ele>
        <time>2013-06-09T08:56:56Z</time>
      </trkpt>
      <trkpt lat="45.9011" lon="-0.94277">
        <ele>7</ele>
        <time>2013-06-09T08:57:05Z</time>
      </trkpt>
      <trkpt lat="45.90113" lon="-0.94265">
        <ele>7</ele>
        <time>2013-06-09T08:57:13Z</time>
      </trkpt>
      <trkpt lat="45.90117" lon="-0.94252">
        <ele>7</ele>
        <time>2013-06-09T08:57:22Z</time>
      </trkpt>
      <trkpt lat="45.90119" lon="-0.9424">
        <ele>7.7</ele>
        <time>2013-06-09T08:57:31Z</time>
      </trkpt>
      <trkpt lat="45.90124" lon="-0.94228">
        <ele>7.6</ele>
        <time>2013-06-09T08:57:39Z</time>
      </trkpt>
      <trkpt lat="45.90126" lon="-0.94214">
        <ele>7.4</ele>
        <time>2013-06-09T08:57:47Z</time>
      </trkpt>
      <trkpt lat="45.90127" lon="-0.94201">
        <ele>7.3</ele>
        <time>2013-06-09T08:57:54Z</time>
      </trkpt>
      <trkpt lat="45.90128" lon="-0.94187">
        <ele>7</ele>
        <time>2013-06-09T08:58:02Z</time>
      </trkpt>
      <trkpt lat="45.9013" lon="-0.94172">
        <ele>6.8</ele>
        <time>2013-06-09T08:58:10Z</time>
      </trkpt>
      <trkpt lat="45.90132" lon="-0.9416">
        <ele>6.8</ele>
        <time>2013-06-09T08:58:17Z</time>
      </trkpt>
      <trkpt lat="45.90134" lon="-0.94145">
        <ele>5</ele>
        <time>2013-06-09T08:58:24Z</time>
      </trkpt>
      <trkpt lat="45.90132" lon="-0.94131">
        <ele>5</ele>
        <time>2013-06-09T08:58:31Z</time>
      </trkpt>
      <trkpt lat="45.90131" lon="-0.94117">
        <ele>5</ele>
        <time>2013-06-09T08:58:41Z</time>
      </trkpt>
      <trkpt lat="45.90128" lon="-0.94104">
        <ele>13</ele>
        <time>2013-06-09T08:58:49Z</time>
      </trkpt>
      <trkpt lat="45.90125" lon="-0.9409">
        <ele>13</ele>
        <time>2013-06-09T08:58:57Z</time>
      </trkpt>
      <trkpt lat="45.90122" lon="-0.94078">
        <ele>13</ele>
        <time>2013-06-09T08:59:06Z</time>
      </trkpt>
      <trkpt lat="45.9012" lon="-0.94065">
        <ele>13</ele>
        <time>2013-06-09T08:59:16Z</time>
      </trkpt>
      <trkpt lat="45.90117" lon="-0.94052">
        <ele>13</ele>
        <time>2013-06-09T08:59:25Z</time>
      </trkpt>
      <trkpt lat="45.90114" lon="-0.94039">
        <ele>13</ele>
        <time>2013-06-09T08:59:32Z</time>
      </trkpt>
      <trkpt lat="45.9011" lon="-0.94027">
        <ele>13</ele>
        <time>2013-06-09T08:59:40Z</time>
      </trkpt>
      <trkpt lat="45.90109" lon="-0.94013">
        <ele>13</ele>
        <time>2013-06-09T08:59:48Z</time>
      </trkpt>
      <trkpt lat="45.90107" lon="-0.94">
        <ele>13</ele>
        <time>2013-06-09T08:59:57Z</time>
      </trkpt>
      <trkpt lat="45.90105" lon="-0.93986">
        <ele>13</ele>
        <time>2013-06-09T09:00:06Z</time>
      </trkpt>
      <trkpt lat="45.90103" lon="-0.93974">
        <ele>13</ele>
        <time>2013-06-09T09:00:14Z</time>
      </trkpt>
      <trkpt lat="45.901" lon="-0.93961">
        <ele>13</ele>
        <time>2013-06-09T09:00:22Z</time>
      </trkpt>
      <trkpt lat="45.90099" lon="-0.93947">
        <ele>13</ele>
        <time>2013-06-09T09:00:31Z</time>
      </trkpt>
      <trkpt lat="45.90098" lon="-0.93933">
        <ele>13</ele>
        <time>2013-06-09T09:00:39Z</time>
      </trkpt>
      <trkpt lat="45.90096" lon="-0.93919">
        <ele>13</ele>
        <time>2013-06-09T09:00:48Z</time>
      </trkpt>
      <trkpt lat="45.90094" lon="-0.93906">
        <ele>13</ele>
        <time>2013-06-09T09:00:57Z</time>
      </trkpt>
      <trkpt lat="45.9009" lon="-0.93894">
        <ele>8</ele>
        <time>2013-06-09T09:01:06Z</time>
      </trkpt>
      <trkpt lat="45.90087" lon="-0.9388">
        <ele>8</ele>
        <time>2013-06-09T09:01:15Z</time>
      </trkpt>
      <trkpt lat="45.90085" lon="-0.93867">
        <ele>8</ele>
        <time>2013-06-09T09:01:24Z</time>
      </trkpt>
      <trkpt lat="45.90084" lon="-0.93853">
        <ele>8</ele>
        <time>2013-06-09T09:01:33Z</time>
      </trkpt>
      <trkpt lat="45.90081" lon="-0.9384">
        <ele>8</ele>
        <time>2013-06-09T09:01:41Z</time>
      </trkpt>
      <trkpt lat="45.90078" lon="-0.93827">
        <ele>8</ele>
        <time>2013-06-09T09:01:50Z</time>
      </trkpt>
      <trkpt lat="45.90077" lon="-0.93814">
        <ele>8</ele>
        <time>2013-06-09T09:01:57Z</time>
      </trkpt>
      <trkpt lat="45.90073" lon="-0.93801">
        <ele>8</ele>
        <time>2013-06-09T09:02:06Z</time>
      </trkpt>
      <trkpt lat="45.90069" lon="-0.93789">
        <ele>8</ele>
        <time>2013-06-09T09:02:13Z</time>
      </trkpt>
      <trkpt lat="45.90064" lon="-0.93777">
        <ele>8</ele>
        <time>2013-06-09T09:02:20Z</time>
      </trkpt>
      <trkpt lat="45.90057" lon="-0.93767">
        <ele>8</ele>
        <time>2013-06-09T09:02:28Z</time>
      </trkpt>
      <trkpt lat="45.9005" lon="-0.93758">
        <ele>8</ele>
        <time>2013-06-09T09:02:36Z</time>
      </trkpt>
      <trkpt lat="45.90043" lon="-0.93749">
        <ele>8</ele>
        <time>2013-06-09T09:02:45Z</time>
      </trkpt>
      <trkpt lat="45.90036" lon="-0.93737">
        <ele>8</ele>
        <time>2013-06-09T09:03:18Z</time>
      </trkpt>
      <trkpt lat="45.90029" lon="-0.93729">
        <ele>8</ele>
        <time>2013-06-09T09:03:23Z</time>
      </trkpt>
      <trkpt lat="45.90021" lon="-0.93722">
        <ele>8</ele>
        <time>2013-06-09T09:03:29Z</time>
      </trkpt>
      <trkpt lat="45.90013" lon="-0.93713">
        <ele>8</ele>
        <time>2013-06-09T09:03:37Z</time>
      </trkpt>
      <trkpt lat="45.90005" lon="-0.93704">
        <ele>8</ele>
        <time>2013-06-09T09:03:45Z</time>
      </trkpt>
      <trkpt lat="45.89998" lon="-0.93695">
        <ele>8</ele>
        <time>2013-06-09T09:03:52Z</time>
      </trkpt>
      <trkpt lat="45.89991" lon="-0.93687">
        <ele>8</ele>
        <time>2013-06-09T09:04:01Z</time>
      </trkpt>
      <trkpt lat="45.89983" lon="-0.93678">
        <ele>8</ele>
        <time>2013-06-09T09:04:09Z</time>
      </trkpt>
      <trkpt lat="45.89977" lon="-0.93667">
        <ele>8</ele>
        <time>2013-06-09T09:04:17Z</time>
      </trkpt>
      <trkpt lat="45.89971" lon="-0.93657">
        <ele>8</ele>
        <time>2013-06-09T09:04:24Z</time>
      </trkpt>
      <trkpt lat="45.89964" lon="-0.93645">
        <ele>8</ele>
        <time>2013-06-09T09:04:33Z</time>
      </trkpt>
      <trkpt lat="45.89959" lon="-0.93633">
        <ele>8</ele>
        <time>2013-06-09T09:04:41Z</time>
      </trkpt>
      <trkpt lat="45.89954" lon="-0.93621">
        <ele>8</ele>
        <time>2013-06-09T09:04:51Z</time>
      </trkpt>
      <trkpt lat="45.89949" lon="-0.93609">
        <ele>8</ele>
        <time>2013-06-09T09:04:58Z</time>
      </trkpt>
      <trkpt lat="45.89944" lon="-0.93598">
        <ele>8</ele>
        <time>2013-06-09T09:05:06Z</time>
      </trkpt>
      <trkpt lat="45.89938" lon="-0.93587">
        <ele>8</ele>
        <time>2013-06-09T09:05:14Z</time>
      </trkpt>
      <trkpt lat="45.8993" lon="-0.93578">
        <ele>8</ele>
        <time>2013-06-09T09:05:23Z</time>
      </trkpt>
      <trkpt lat="45.89924" lon="-0.93566">
        <ele>8</ele>
        <time>2013-06-09T09:05:31Z</time>
      </trkpt>
      <trkpt lat="45.8992" lon="-0.93552">
        <ele>8</ele>
        <time>2013-06-09T09:05:40Z</time>
      </trkpt>
      <trkpt lat="45.89915" lon="-0.93541">
        <ele>8</ele>
        <time>2013-06-09T09:05:49Z</time>
      </trkpt>
      <trkpt lat="45.89911" lon="-0.93528">
        <ele>8</ele>
        <time>2013-06-09T09:05:57Z</time>
      </trkpt>
      <trkpt lat="45.89905" lon="-0.93516">
        <ele>8</ele>
        <time>2013-06-09T09:06:06Z</time>
      </trkpt>
      <trkpt lat="45.899" lon="-0.93506">
        <ele>8</ele>
        <time>2013-06-09T09:06:13Z</time>
      </trkpt>
      <trkpt lat="45.89894" lon="-0.93494">
        <ele>8</ele>
        <time>2013-06-09T09:06:22Z</time>
      </trkpt>
      <trkpt lat="45.89889" lon="-0.93481">
        <ele>2</ele>
        <time>2013-06-09T09:06:29Z</time>
      </trkpt>
      <trkpt lat="45.89884" lon="-0.9347">
        <ele>2</ele>
        <time>2013-06-09T09:06:38Z</time>
      </trkpt>
      <trkpt lat="45.8988" lon="-0.93455">
        <ele>2</ele>
        <time>2013-06-09T09:06:47Z</time>
      </trkpt>
      <trkpt lat="45.89878" lon="-0.93441">
        <ele>2</ele>
        <time>2013-06-09T09:06:57Z</time>
      </trkpt>
      <trkpt lat="45.8988" lon="-0.93428">
        <ele>2</ele>
        <time>2013-06-09T09:07:08Z</time>
      </trkpt>
      <trkpt lat="45.89879" lon="-0.93414">
        <ele>2</ele>
        <time>2013-06-09T09:07:57Z</time>
      </trkpt>
      <trkpt lat="45.89872" lon="-0.93423">
        <ele>7</ele>
        <time>2013-06-09T09:12:08Z</time>
      </trkpt>
      <trkpt lat="45.89863" lon="-0.93423">
        <ele>7</ele>
        <time>2013-06-09T09:12:18Z</time>
      </trkpt>
      <trkpt lat="45.89853" lon="-0.9342">
        <ele>7</ele>
        <time>2013-06-09T09:12:28Z</time>
      </trkpt>
      <trkpt lat="45.89845" lon="-0.9341">
        <ele>12</ele>
        <time>2013-06-09T09:12:35Z</time>
      </trkpt>
      <trkpt lat="45.8984" lon="-0.93398">
        <ele>12</ele>
        <time>2013-06-09T09:12:47Z</time>
      </trkpt>
      <trkpt lat="45.89834" lon="-0.93387">
        <ele>7</ele>
        <time>2013-06-09T09:12:56Z</time>
      </trkpt>
      <trkpt lat="45.89828" lon="-0.93376">
        <ele>7</ele>
        <time>2013-06-09T09:13:04Z</time>
      </trkpt>
      <trkpt lat="45.89821" lon="-0.93366">
        <ele>7</ele>
        <time>2013-06-09T09:13:15Z</time>
      </trkpt>
      <trkpt lat="45.89813" lon="-0.93356">
        <ele>7</ele>
        <time>2013-06-09T09:13:26Z</time>
      </trkpt>
      <trkpt lat="45.89806" lon="-0.93347">
        <ele>7</ele>
        <time>2013-06-09T09:13:34Z</time>
      </trkpt>
      <trkpt lat="45.898" lon="-0.93337">
        <ele>7</ele>
        <time>2013-06-09T09:13:43Z</time>
      </trkpt>
      <trkpt lat="45.89793" lon="-0.93328">
        <ele>7</ele>
        <time>2013-06-09T09:13:52Z</time>
      </trkpt>
      <trkpt lat="45.89786" lon="-0.93318">
        <ele>7</ele>
        <time>2013-06-09T09:14:01Z</time>
      </trkpt>
      <trkpt lat="45.89779" lon="-0.93307">
        <ele>7</ele>
        <time>2013-06-09T09:14:12Z</time>
      </trkpt>
      <trkpt lat="45.89772" lon="-0.93296">
        <ele>7</ele>
        <time>2013-06-09T09:14:23Z</time>
      </trkpt>
      <trkpt lat="45.89766" lon="-0.93287">
        <ele>7</ele>
        <time>2013-06-09T09:14:32Z</time>
      </trkpt>
      <trkpt lat="45.89763" lon="-0.93275">
        <ele>7</ele>
        <time>2013-06-09T09:14:48Z</time>
      </trkpt>
      <trkpt lat="45.89767" lon="-0.93263">
        <ele>7</ele>
        <time>2013-06-09T09:14:58Z</time>
      </trkpt>
      <trkpt lat="45.89767" lon="-0.9325">
        <ele>7</ele>
        <time>2013-06-09T09:15:08Z</time>
      </trkpt>
      <trkpt lat="45.89762" lon="-0.93239">
        <ele>5.2</ele>
        <time>2013-06-09T09:15:18Z</time>
      </trkpt>
      <trkpt lat="45.89756" lon="-0.93227">
        <ele>5.6</ele>
        <time>2013-06-09T09:15:26Z</time>
      </trkpt>
      <trkpt lat="45.89753" lon="-0.93214">
        <ele>5.5</ele>
        <time>2013-06-09T09:15:35Z</time>
      </trkpt>
      <trkpt lat="45.89745" lon="-0.93204">
        <ele>5.5</ele>
        <time>2013-06-09T09:15:47Z</time>
      </trkpt>
      <trkpt lat="45.89736" lon="-0.93199">
        <ele>5.7</ele>
        <time>2013-06-09T09:15:55Z</time>
      </trkpt>
      <trkpt lat="45.89727" lon="-0.93193">
        <ele>5.8</ele>
        <time>2013-06-09T09:16:06Z</time>
      </trkpt>
      <trkpt lat="45.89718" lon="-0.93198">
        <ele>6.2</ele>
        <time>2013-06-09T09:16:15Z</time>
      </trkpt>
      <trkpt lat="45.89709" lon="-0.93201">
        <ele>11</ele>
        <time>2013-06-09T09:16:30Z</time>
      </trkpt>
      <trkpt lat="45.89703" lon="-0.93189">
        <ele>5</ele>
        <time>2013-06-09T09:16:43Z</time>
      </trkpt>
      <trkpt lat="45.89701" lon="-0.93177">
        <ele>5</ele>
        <time>2013-06-09T09:16:51Z</time>
      </trkpt>
      <trkpt lat="45.89698" lon="-0.93163">
        <ele>5</ele>
        <time>2013-06-09T09:17:02Z</time>
      </trkpt>
      <trkpt lat="45.89693" lon="-0.93151">
        <ele>5</ele>
        <time>2013-06-09T09:17:13Z</time>
      </trkpt>
      <trkpt lat="45.89685" lon="-0.93143">
        <ele>-1</ele>
        <time>2013-06-09T09:17:24Z</time>
      </trkpt>
      <trkpt lat="45.8968" lon="-0.93132">
        <ele>-1</ele>
        <time>2013-06-09T09:17:30Z</time>
      </trkpt>
      <trkpt lat="45.89678" lon="-0.93117">
        <ele>6</ele>
        <time>2013-06-09T09:17:52Z</time>
      </trkpt>
      <trkpt lat="45.8968" lon="-0.93103">
        <ele>-2</ele>
        <time>2013-06-09T09:18:02Z</time>
      </trkpt>
      <trkpt lat="45.89671" lon="-0.931">
        <ele>5</ele>
        <time>2013-06-09T09:18:17Z</time>
      </trkpt>
      <trkpt lat="45.89661" lon="-0.93099">
        <ele>5</ele>
        <time>2013-06-09T09:18:25Z</time>
      </trkpt>
      <trkpt lat="45.89653" lon="-0.93095">
        <ele>5</ele>
        <time>2013-06-09T09:18:31Z</time>
      </trkpt>
      <trkpt lat="45.89643" lon="-0.93096">
        <ele>5</ele>
        <time>2013-06-09T09:18:40Z</time>
      </trkpt>
      <trkpt lat="45.89633" lon="-0.93094">
        <ele>5</ele>
        <time>2013-06-09T09:18:48Z</time>
      </trkpt>
      <trkpt lat="45.89623" lon="-0.93094">
        <ele>11</ele>
        <time>2013-06-09T09:18:55Z</time>
      </trkpt>
      <trkpt lat="45.89612" lon="-0.93093">
        <ele>11</ele>
        <time>2013-06-09T09:19:06Z</time>
      </trkpt>
      <trkpt lat="45.89602" lon="-0.93094">
        <ele>11</ele>
        <time>2013-06-09T09:19:14Z</time>
      </trkpt>
      <trkpt lat="45.89593" lon="-0.93092">
        <ele>11</ele>
        <time>2013-06-09T09:19:23Z</time>
      </trkpt>
      <trkpt lat="45.89584" lon="-0.9309">
        <ele>3</ele>
        <time>2013-06-09T09:19:32Z</time>
      </trkpt>
      <trkpt lat="45.89574" lon="-0.93092">
        <ele>-3</ele>
        <time>2013-06-09T09:19:41Z</time>
      </trkpt>
      <trkpt lat="45.89564" lon="-0.93091">
        <ele>6</ele>
        <time>2013-06-09T09:19:48Z</time>
      </trkpt>
      <trkpt lat="45.89554" lon="-0.9309">
        <ele>6</ele>
        <time>2013-06-09T09:19:57Z</time>
      </trkpt>
      <trkpt lat="45.89544" lon="-0.93085">
        <ele>6</ele>
        <time>2013-06-09T09:20:04Z</time>
      </trkpt>
      <trkpt lat="45.89535" lon="-0.93082">
        <ele>2.9</ele>
        <time>2013-06-09T09:20:10Z</time>
      </trkpt>
      <trkpt lat="45.89526" lon="-0.93083">
        <ele>3</ele>
        <time>2013-06-09T09:20:18Z</time>
      </trkpt>
      <trkpt lat="45.89517" lon="-0.93085">
        <ele>3</ele>
        <time>2013-06-09T09:20:29Z</time>
      </trkpt>
      <trkpt lat="45.89507" lon="-0.93085">
        <ele>3</ele>
        <time>2013-06-09T09:20:37Z</time>
      </trkpt>
      <trkpt lat="45.89496" lon="-0.93082">
        <ele>2.9</ele>
        <time>2013-06-09T09:20:47Z</time>
      </trkpt>
      <trkpt lat="45.89486" lon="-0.93082">
        <ele>2.9</ele>
        <time>2013-06-09T09:20:57Z</time>
      </trkpt>
      <trkpt lat="45.89477" lon="-0.93082">
        <ele>2.9</ele>
        <time>2013-06-09T09:21:03Z</time>
      </trkpt>
      <trkpt lat="45.89467" lon="-0.93085">
        <ele>3</ele>
        <time>2013-06-09T09:21:12Z</time>
      </trkpt>
      <trkpt lat="45.89458" lon="-0.93083">
        <ele>3</ele>
        <time>2013-06-09T09:21:19Z</time>
      </trkpt>
      <trkpt lat="45.89448" lon="-0.93082">
        <ele>3</ele>
        <time>2013-06-09T09:21:25Z</time>
      </trkpt>
      <trkpt lat="45.89438" lon="-0.93082">
        <ele>3</ele>
        <time>2013-06-09T09:21:35Z</time>
      </trkpt>
      <trkpt lat="45.89429" lon="-0.93081">
        <ele>3</ele>
        <time>2013-06-09T09:21:41Z</time>
      </trkpt>
      <trkpt lat="45.89419" lon="-0.93078">
        <ele>3</ele>
        <time>2013-06-09T09:21:48Z</time>
      </trkpt>
      <trkpt lat="45.89409" lon="-0.9308">
        <ele>8</ele>
        <time>2013-06-09T09:21:57Z</time>
      </trkpt>
      <trkpt lat="45.894" lon="-0.93078">
        <ele>8</ele>
        <time>2013-06-09T09:22:06Z</time>
      </trkpt>
      <trkpt lat="45.89387" lon="-0.93077">
        <ele>-1</ele>
        <time>2013-06-09T09:22:17Z</time>
      </trkpt>
      <trkpt lat="45.89377" lon="-0.93075">
        <ele>-1</ele>
        <time>2013-06-09T09:22:26Z</time>
      </trkpt>
      <trkpt lat="45.89366" lon="-0.93077">
        <ele>-1</ele>
        <time>2013-06-09T09:22:34Z</time>
      </trkpt>
      <trkpt lat="45.89355" lon="-0.93078">
        <ele>-1</ele>
        <time>2013-06-09T09:22:46Z</time>
      </trkpt>
      <trkpt lat="45.89347" lon="-0.93072">
        <ele>-1</ele>
        <time>2013-06-09T09:22:52Z</time>
      </trkpt>
      <trkpt lat="45.89338" lon="-0.93065">
        <ele>-8</ele>
        <time>2013-06-09T09:22:57Z</time>
      </trkpt>
      <trkpt lat="45.89326" lon="-0.93067">
        <ele>-8</ele>
        <time>2013-06-09T09:23:05Z</time>
      </trkpt>
      <trkpt lat="45.89318" lon="-0.93071">
        <ele>3.7</ele>
        <time>2013-06-09T09:23:13Z</time>
      </trkpt>
      <trkpt lat="45.89308" lon="-0.93073">
        <ele>9</ele>
        <time>2013-06-09T09:23:20Z</time>
      </trkpt>
      <trkpt lat="45.89299" lon="-0.93077">
        <ele>9</ele>
        <time>2013-06-09T09:23:28Z</time>
      </trkpt>
      <trkpt lat="45.8929" lon="-0.93079">
        <ele>9</ele>
        <time>2013-06-09T09:23:36Z</time>
      </trkpt>
      <trkpt lat="45.89281" lon="-0.93086">
        <ele>9</ele>
        <time>2013-06-09T09:23:44Z</time>
      </trkpt>
      <trkpt lat="45.89273" lon="-0.93092">
        <ele>9</ele>
        <time>2013-06-09T09:23:51Z</time>
      </trkpt>
      <trkpt lat="45.89265" lon="-0.93101">
        <ele>9</ele>
        <time>2013-06-09T09:24:02Z</time>
      </trkpt>
      <trkpt lat="45.89259" lon="-0.93111">
        <ele>9</ele>
        <time>2013-06-09T09:24:10Z</time>
      </trkpt>
      <trkpt lat="45.89251" lon="-0.93121">
        <ele>9</ele>
        <time>2013-06-09T09:24:19Z</time>
      </trkpt>
      <trkpt lat="45.89245" lon="-0.93132">
        <ele>9</ele>
        <time>2013-06-09T09:24:26Z</time>
      </trkpt>
      <trkpt lat="45.8924" lon="-0.93144">
        <ele>9</ele>
        <time>2013-06-09T09:24:34Z</time>
      </trkpt>
      <trkpt lat="45.89234" lon="-0.93154">
        <ele>15</ele>
        <time>2013-06-09T09:24:41Z</time>
      </trkpt>
      <trkpt lat="45.89225" lon="-0.93161">
        <ele>8</ele>
        <time>2013-06-09T09:24:50Z</time>
      </trkpt>
      <trkpt lat="45.8922" lon="-0.93173">
        <ele>8</ele>
        <time>2013-06-09T09:24:57Z</time>
      </trkpt>
      <trkpt lat="45.89212" lon="-0.93182">
        <ele>15</ele>
        <time>2013-06-09T09:25:06Z</time>
      </trkpt>
      <trkpt lat="45.89204" lon="-0.9319">
        <ele>15</ele>
        <time>2013-06-09T09:25:14Z</time>
      </trkpt>
      <trkpt lat="45.89198" lon="-0.93202">
        <ele>8</ele>
        <time>2013-06-09T09:25:25Z</time>
      </trkpt>
      <trkpt lat="45.8919" lon="-0.9321">
        <ele>8</ele>
        <time>2013-06-09T09:25:33Z</time>
      </trkpt>
      <trkpt lat="45.89185" lon="-0.93221">
        <ele>2</ele>
        <time>2013-06-09T09:25:40Z</time>
      </trkpt>
      <trkpt lat="45.89176" lon="-0.9323">
        <ele>7</ele>
        <time>2013-06-09T09:25:47Z</time>
      </trkpt>
      <trkpt lat="45.8917" lon="-0.9324">
        <ele>7</ele>
        <time>2013-06-09T09:25:53Z</time>
      </trkpt>
      <trkpt lat="45.89163" lon="-0.93251">
        <ele>7</ele>
        <time>2013-06-09T09:26:00Z</time>
      </trkpt>
      <trkpt lat="45.89156" lon="-0.9326">
        <ele>13</ele>
        <time>2013-06-09T09:26:08Z</time>
      </trkpt>
      <trkpt lat="45.8915" lon="-0.93272">
        <ele>13</ele>
        <time>2013-06-09T09:26:17Z</time>
      </trkpt>
      <trkpt lat="45.89141" lon="-0.9328">
        <ele>13</ele>
        <time>2013-06-09T09:26:26Z</time>
      </trkpt>
      <trkpt lat="45.89134" lon="-0.93289">
        <ele>13</ele>
        <time>2013-06-09T09:26:34Z</time>
      </trkpt>
      <trkpt lat="45.89128" lon="-0.93301">
        <ele>13</ele>
        <time>2013-06-09T09:26:43Z</time>
      </trkpt>
      <trkpt lat="45.89122" lon="-0.93312">
        <ele>13</ele>
        <time>2013-06-09T09:26:52Z</time>
      </trkpt>
      <trkpt lat="45.89115" lon="-0.93321">
        <ele>2</ele>
        <time>2013-06-09T09:27:02Z</time>
      </trkpt>
      <trkpt lat="45.89108" lon="-0.93331">
        <ele>2</ele>
        <time>2013-06-09T09:27:09Z</time>
      </trkpt>
      <trkpt lat="45.89103" lon="-0.93342">
        <ele>8</ele>
        <time>2013-06-09T09:27:17Z</time>
      </trkpt>
      <trkpt lat="45.89094" lon="-0.9335">
        <ele>8</ele>
        <time>2013-06-09T09:27:27Z</time>
      </trkpt>
      <trkpt lat="45.89087" lon="-0.93365">
        <ele>8</ele>
        <time>2013-06-09T09:27:34Z</time>
      </trkpt>
      <trkpt lat="45.89081" lon="-0.93375">
        <ele>16</ele>
        <time>2013-06-09T09:27:41Z</time>
      </trkpt>
      <trkpt lat="45.89074" lon="-0.93384">
        <ele>11</ele>
        <time>2013-06-09T09:27:53Z</time>
      </trkpt>
      <trkpt lat="45.89066" lon="-0.93393">
        <ele>-2</ele>
        <time>2013-06-09T09:28:04Z</time>
      </trkpt>
      <trkpt lat="45.89059" lon="-0.93403">
        <ele>3</ele>
        <time>2013-06-09T09:28:10Z</time>
      </trkpt>
      <trkpt lat="45.89051" lon="-0.93413">
        <ele>10</ele>
        <time>2013-06-09T09:28:17Z</time>
      </trkpt>
      <trkpt lat="45.89055" lon="-0.93401">
        <ele>10</ele>
        <time>2013-06-09T09:28:43Z</time>
      </trkpt>
      <trkpt lat="45.89058" lon="-0.93413">
        <ele>5</ele>
        <time>2013-06-09T09:29:23Z</time>
      </trkpt>
      <trkpt lat="45.89062" lon="-0.93426">
        <ele>5</ele>
        <time>2013-06-09T09:29:31Z</time>
      </trkpt>
      <trkpt lat="45.89068" lon="-0.93437">
        <ele>5</ele>
        <time>2013-06-09T09:29:38Z</time>
      </trkpt>
      <trkpt lat="45.89073" lon="-0.93449">
        <ele>5</ele>
        <time>2013-06-09T09:29:46Z</time>
      </trkpt>
      <trkpt lat="45.89078" lon="-0.93461">
        <ele>5</ele>
        <time>2013-06-09T09:29:54Z</time>
      </trkpt>
      <trkpt lat="45.89069" lon="-0.93468">
        <ele>5</ele>
        <time>2013-06-09T09:30:01Z</time>
      </trkpt>
      <trkpt lat="45.89062" lon="-0.93477">
        <ele>5</ele>
        <time>2013-06-09T09:30:08Z</time>
      </trkpt>
      <trkpt lat="45.89054" lon="-0.93484">
        <ele>5</ele>
        <time>2013-06-09T09:30:16Z</time>
      </trkpt>
      <trkpt lat="45.89045" lon="-0.93492">
        <ele>-2</ele>
        <time>2013-06-09T09:30:26Z</time>
      </trkpt>
      <trkpt lat="45.89038" lon="-0.93502">
        <ele>-2</ele>
        <time>2013-06-09T09:30:34Z</time>
      </trkpt>
      <trkpt lat="45.89031" lon="-0.93512">
        <ele>-2</ele>
        <time>2013-06-09T09:30:43Z</time>
      </trkpt>
      <trkpt lat="45.89024" lon="-0.93524">
        <ele>-2</ele>
        <time>2013-06-09T09:30:50Z</time>
      </trkpt>
      <trkpt lat="45.89018" lon="-0.93534">
        <ele>4</ele>
        <time>2013-06-09T09:30:56Z</time>
      </trkpt>
      <trkpt lat="45.89012" lon="-0.93543">
        <ele>10</ele>
        <time>2013-06-09T09:31:04Z</time>
      </trkpt>
      <trkpt lat="45.89011" lon="-0.93557">
        <ele>10</ele>
        <time>2013-06-09T09:31:13Z</time>
      </trkpt>
      <trkpt lat="45.89013" lon="-0.93569">
        <ele>10</ele>
        <time>2013-06-09T09:31:21Z</time>
      </trkpt>
      <trkpt lat="45.89017" lon="-0.93582">
        <ele>10</ele>
        <time>2013-06-09T09:31:28Z</time>
      </trkpt>
      <trkpt lat="45.89022" lon="-0.93594">
        <ele>10</ele>
        <time>2013-06-09T09:31:36Z</time>
      </trkpt>
      <trkpt lat="45.89026" lon="-0.93605">
        <ele>10</ele>
        <time>2013-06-09T09:31:44Z</time>
      </trkpt>
      <trkpt lat="45.89032" lon="-0.93617">
        <ele>10</ele>
        <time>2013-06-09T09:31:53Z</time>
      </trkpt>
      <trkpt lat="45.89038" lon="-0.93629">
        <ele>10</ele>
        <time>2013-06-09T09:32:01Z</time>
      </trkpt>
      <trkpt lat="45.89044" lon="-0.93642">
        <ele>10</ele>
        <time>2013-06-09T09:32:08Z</time>
      </trkpt>
      <trkpt lat="45.89045" lon="-0.93656">
        <ele>10</ele>
        <time>2013-06-09T09:32:16Z</time>
      </trkpt>
      <trkpt lat="45.8905" lon="-0.9367">
        <ele>15</ele>
        <time>2013-06-09T09:32:26Z</time>
      </trkpt>
      <trkpt lat="45.89051" lon="-0.93684">
        <ele>15</ele>
        <time>2013-06-09T09:32:35Z</time>
      </trkpt>
      <trkpt lat="45.89058" lon="-0.93693">
        <ele>8</ele>
        <time>2013-06-09T09:32:42Z</time>
      </trkpt>
      <trkpt lat="45.8906" lon="-0.93705">
        <ele>8</ele>
        <time>2013-06-09T09:32:51Z</time>
      </trkpt>
      <trkpt lat="45.89065" lon="-0.93717">
        <ele>8</ele>
        <time>2013-06-09T09:33:00Z</time>
      </trkpt>
      <trkpt lat="45.89069" lon="-0.9373">
        <ele>8</ele>
        <time>2013-06-09T09:33:07Z</time>
      </trkpt>
      <trkpt lat="45.89075" lon="-0.9374">
        <ele>8</ele>
        <time>2013-06-09T09:33:15Z</time>
      </trkpt>
      <trkpt lat="45.8908" lon="-0.93753">
        <ele>8</ele>
        <time>2013-06-09T09:33:24Z</time>
      </trkpt>
      <trkpt lat="45.89085" lon="-0.93765">
        <ele>8</ele>
        <time>2013-06-09T09:33:32Z</time>
      </trkpt>
      <trkpt lat="45.89089" lon="-0.93779">
        <ele>6.2</ele>
        <time>2013-06-09T09:33:41Z</time>
      </trkpt>
      <trkpt lat="45.89092" lon="-0.93792">
        <ele>6</ele>
        <time>2013-06-09T09:33:50Z</time>
      </trkpt>
      <trkpt lat="45.89095" lon="-0.93807">
        <ele>5.8</ele>
        <time>2013-06-09T09:33:58Z</time>
      </trkpt>
      <trkpt lat="45.89094" lon="-0.93821">
        <ele>5.8</ele>
        <time>2013-06-09T09:34:06Z</time>
      </trkpt>
      <trkpt lat="45.89094" lon="-0.93834">
        <ele>5.8</ele>
        <time>2013-06-09T09:34:13Z</time>
      </trkpt>
      <trkpt lat="45.89095" lon="-0.93848">
        <ele>5.6</ele>
        <time>2013-06-09T09:34:22Z</time>
      </trkpt>
      <trkpt lat="45.89091" lon="-0.93861">
        <ele>5.3</ele>
        <time>2013-06-09T09:34:29Z</time>
      </trkpt>
      <trkpt lat="45.89087" lon="-0.93874">
        <ele>7</ele>
        <time>2013-06-09T09:34:37Z</time>
      </trkpt>
      <trkpt lat="45.89086" lon="-0.93888">
        <ele>7</ele>
        <time>2013-06-09T09:34:45Z</time>
      </trkpt>
      <trkpt lat="45.89084" lon="-0.93903">
        <ele>7</ele>
        <time>2013-06-09T09:34:54Z</time>
      </trkpt>
      <trkpt lat="45.89081" lon="-0.93915">
        <ele>7</ele>
        <time>2013-06-09T09:35:01Z</time>
      </trkpt>
      <trkpt lat="45.89079" lon="-0.9393">
        <ele>7</ele>
        <time>2013-06-09T09:35:10Z</time>
      </trkpt>
      <trkpt lat="45.89077" lon="-0.93944">
        <ele>7</ele>
        <time>2013-06-09T09:35:19Z</time>
      </trkpt>
      <trkpt lat="45.89075" lon="-0.93958">
        <ele>7</ele>
        <time>2013-06-09T09:35:27Z</time>
      </trkpt>
      <trkpt lat="45.89072" lon="-0.9397">
        <ele>7</ele>
        <time>2013-06-09T09:35:34Z</time>
      </trkpt>
      <trkpt lat="45.89071" lon="-0.93984">
        <ele>7</ele>
        <time>2013-06-09T09:35:43Z</time>
      </trkpt>
      <trkpt lat="45.89068" lon="-0.93998">
        <ele>7</ele>
        <time>2013-06-09T09:35:51Z</time>
      </trkpt>
      <trkpt lat="45.89066" lon="-0.94012">
        <ele>7</ele>
        <time>2013-06-09T09:36:00Z</time>
      </trkpt>
      <trkpt lat="45.89064" lon="-0.94027">
        <ele>7</ele>
        <time>2013-06-09T09:36:09Z</time>
      </trkpt>
      <trkpt lat="45.89062" lon="-0.9404">
        <ele>7</ele>
        <time>2013-06-09T09:36:17Z</time>
      </trkpt>
      <trkpt lat="45.89061" lon="-0.94055">
        <ele>7</ele>
        <time>2013-06-09T09:36:26Z</time>
      </trkpt>
      <trkpt lat="45.89059" lon="-0.94068">
        <ele>7</ele>
        <time>2013-06-09T09:36:33Z</time>
      </trkpt>
      <trkpt lat="45.89057" lon="-0.94082">
        <ele>7</ele>
        <time>2013-06-09T09:36:42Z</time>
      </trkpt>
      <trkpt lat="45.89055" lon="-0.94095">
        <ele>7</ele>
        <time>2013-06-09T09:36:50Z</time>
      </trkpt>
      <trkpt lat="45.89053" lon="-0.94109">
        <ele>7</ele>
        <time>2013-06-09T09:36:58Z</time>
      </trkpt>
      <trkpt lat="45.89052" lon="-0.94124">
        <ele>7</ele>
        <time>2013-06-09T09:37:06Z</time>
      </trkpt>
      <trkpt lat="45.8905" lon="-0.94137">
        <ele>7</ele>
        <time>2013-06-09T09:37:14Z</time>
      </trkpt>
      <trkpt lat="45.89047" lon="-0.94151">
        <ele>7</ele>
        <time>2013-06-09T09:37:24Z</time>
      </trkpt>
      <trkpt lat="45.89044" lon="-0.94164">
        <ele>12</ele>
        <time>2013-06-09T09:37:31Z</time>
      </trkpt>
      <trkpt lat="45.89042" lon="-0.94178">
        <ele>12</ele>
        <time>2013-06-09T09:37:40Z</time>
      </trkpt>
      <trkpt lat="45.89038" lon="-0.94191">
        <ele>12</ele>
        <time>2013-06-09T09:37:49Z</time>
      </trkpt>
      <trkpt lat="45.89032" lon="-0.94203">
        <ele>12</ele>
        <time>2013-06-09T09:37:57Z</time>
      </trkpt>
      <trkpt lat="45.89027" lon="-0.94216">
        <ele>7</ele>
        <time>2013-06-09T09:38:06Z</time>
      </trkpt>
      <trkpt lat="45.8902" lon="-0.94227">
        <ele>7</ele>
        <time>2013-06-09T09:38:15Z</time>
      </trkpt>
      <trkpt lat="45.89015" lon="-0.94238">
        <ele>7</ele>
        <time>2013-06-09T09:38:24Z</time>
      </trkpt>
      <trkpt lat="45.89007" lon="-0.94247">
        <ele>2</ele>
        <time>2013-06-09T09:38:35Z</time>
      </trkpt>
      <trkpt lat="45.89" lon="-0.94257">
        <ele>2</ele>
        <time>2013-06-09T09:38:44Z</time>
      </trkpt>
      <trkpt lat="45.88993" lon="-0.94267">
        <ele>-5</ele>
        <time>2013-06-09T09:38:53Z</time>
      </trkpt>
      <trkpt lat="45.88987" lon="-0.94278">
        <ele>-5</ele>
        <time>2013-06-09T09:39:00Z</time>
      </trkpt>
      <trkpt lat="45.88982" lon="-0.94293">
        <ele>-16</ele>
        <time>2013-06-09T09:39:10Z</time>
      </trkpt>
      <trkpt lat="45.88976" lon="-0.94303">
        <ele>-16</ele>
        <time>2013-06-09T09:39:17Z</time>
      </trkpt>
      <trkpt lat="45.88968" lon="-0.94313">
        <ele>-3</ele>
        <time>2013-06-09T09:39:25Z</time>
      </trkpt>
      <trkpt lat="45.88961" lon="-0.94321">
        <ele>2</ele>
        <time>2013-06-09T09:39:33Z</time>
      </trkpt>
      <trkpt lat="45.88957" lon="-0.94334">
        <ele>2</ele>
        <time>2013-06-09T09:39:43Z</time>
      </trkpt>
      <trkpt lat="45.88959" lon="-0.94347">
        <ele>2</ele>
        <time>2013-06-09T09:39:51Z</time>
      </trkpt>
      <trkpt lat="45.88965" lon="-0.94357">
        <ele>2</ele>
        <time>2013-06-09T09:39:59Z</time>
      </trkpt>
      <trkpt lat="45.88971" lon="-0.94368">
        <ele>15</ele>
        <time>2013-06-09T09:40:08Z</time>
      </trkpt>
      <trkpt lat="45.88975" lon="-0.94382">
        <ele>15</ele>
        <time>2013-06-09T09:40:17Z</time>
      </trkpt>
      <trkpt lat="45.88981" lon="-0.94392">
        <ele>15</ele>
        <time>2013-06-09T09:40:27Z</time>
      </trkpt>
      <trkpt lat="45.88986" lon="-0.94404">
        <ele>15</ele>
        <time>2013-06-09T09:40:36Z</time>
      </trkpt>
      <trkpt lat="45.88993" lon="-0.94414">
        <ele>15</ele>
        <time>2013-06-09T09:40:44Z</time>
      </trkpt>
      <trkpt lat="45.89002" lon="-0.94422">
        <ele>15</ele>
        <time>2013-06-09T09:40:51Z</time>
      </trkpt>
      <trkpt lat="45.8901" lon="-0.94428">
        <ele>15</ele>
        <time>2013-06-09T09:40:55Z</time>
      </trkpt>
      <trkpt lat="45.89015" lon="-0.94439">
        <ele>15</ele>
        <time>2013-06-09T09:41:06Z</time>
      </trkpt>
      <trkpt lat="45.89023" lon="-0.9445">
        <ele>15</ele>
        <time>2013-06-09T09:41:16Z</time>
      </trkpt>
      <trkpt lat="45.89028" lon="-0.94461">
        <ele>6</ele>
        <time>2013-06-09T09:41:51Z</time>
      </trkpt>
      <trkpt lat="45.89037" lon="-0.9447">
        <ele>6</ele>
        <time>2013-06-09T09:41:56Z</time>
      </trkpt>
      <trkpt lat="45.89045" lon="-0.94479">
        <ele>6</ele>
        <time>2013-06-09T09:41:59Z</time>
      </trkpt>
      <trkpt lat="45.89054" lon="-0.94489">
        <ele>6</ele>
        <time>2013-06-09T09:42:03Z</time>
      </trkpt>
      <trkpt lat="45.89062" lon="-0.94498">
        <ele>6</ele>
        <time>2013-06-09T09:42:08Z</time>
      </trkpt>
      <trkpt lat="45.89068" lon="-0.94508">
        <ele>6</ele>
        <time>2013-06-09T09:42:14Z</time>
      </trkpt>
      <trkpt lat="45.89076" lon="-0.94517">
        <ele>12</ele>
        <time>2013-06-09T09:42:20Z</time>
      </trkpt>
      <trkpt lat="45.89084" lon="-0.94525">
        <ele>12</ele>
        <time>2013-06-09T09:42:27Z</time>
      </trkpt>
      <trkpt lat="45.89092" lon="-0.94533">
        <ele>12</ele>
        <time>2013-06-09T09:42:35Z</time>
      </trkpt>
      <trkpt lat="45.89098" lon="-0.94544">
        <ele>12</ele>
        <time>2013-06-09T09:42:42Z</time>
      </trkpt>
      <trkpt lat="45.89105" lon="-0.94553">
        <ele>12</ele>
        <time>2013-06-09T09:42:50Z</time>
      </trkpt>
      <trkpt lat="45.89113" lon="-0.94562">
        <ele>12</ele>
        <time>2013-06-09T09:42:58Z</time>
      </trkpt>
      <trkpt lat="45.8912" lon="-0.9457">
        <ele>12</ele>
        <time>2013-06-09T09:43:06Z</time>
      </trkpt>
      <trkpt lat="45.89128" lon="-0.9458">
        <ele>12</ele>
        <time>2013-06-09T09:43:14Z</time>
      </trkpt>
      <trkpt lat="45.89135" lon="-0.9459">
        <ele>12</ele>
        <time>2013-06-09T09:43:22Z</time>
      </trkpt>
      <trkpt lat="45.89141" lon="-0.94599">
        <ele>12</ele>
        <time>2013-06-09T09:43:29Z</time>
      </trkpt>
      <trkpt lat="45.89148" lon="-0.94609">
        <ele>12</ele>
        <time>2013-06-09T09:43:36Z</time>
      </trkpt>
      <trkpt lat="45.89155" lon="-0.94618">
        <ele>12</ele>
        <time>2013-06-09T09:43:43Z</time>
      </trkpt>
      <trkpt lat="45.8916" lon="-0.9463">
        <ele>12</ele>
        <time>2013-06-09T09:43:51Z</time>
      </trkpt>
      <trkpt lat="45.89165" lon="-0.94642">
        <ele>12</ele>
        <time>2013-06-09T09:43:59Z</time>
      </trkpt>
      <trkpt lat="45.8917" lon="-0.94654">
        <ele>12</ele>
        <time>2013-06-09T09:44:07Z</time>
      </trkpt>
      <trkpt lat="45.89176" lon="-0.94665">
        <ele>12</ele>
        <time>2013-06-09T09:44:14Z</time>
      </trkpt>
      <trkpt lat="45.89182" lon="-0.94675">
        <ele>12</ele>
        <time>2013-06-09T09:44:22Z</time>
      </trkpt>
      <trkpt lat="45.89187" lon="-0.94687">
        <ele>12</ele>
        <time>2013-06-09T09:44:30Z</time>
      </trkpt>
      <trkpt lat="45.89191" lon="-0.947">
        <ele>12</ele>
        <time>2013-06-09T09:44:38Z</time>
      </trkpt>
      <trkpt lat="45.89197" lon="-0.94712">
        <ele>12</ele>
        <time>2013-06-09T09:44:47Z</time>
      </trkpt>
      <trkpt lat="45.89202" lon="-0.94724">
        <ele>12</ele>
        <time>2013-06-09T09:44:55Z</time>
      </trkpt>
      <trkpt lat="45.89207" lon="-0.94735">
        <ele>12</ele>
        <time>2013-06-09T09:45:03Z</time>
      </trkpt>
      <trkpt lat="45.89212" lon="-0.94747">
        <ele>12</ele>
        <time>2013-06-09T09:45:11Z</time>
      </trkpt>
      <trkpt lat="45.89219" lon="-0.94758">
        <ele>12</ele>
        <time>2013-06-09T09:45:19Z</time>
      </trkpt>
      <trkpt lat="45.89225" lon="-0.9477">
        <ele>12</ele>
        <time>2013-06-09T09:45:28Z</time>
      </trkpt>
      <trkpt lat="45.8923" lon="-0.94781">
        <ele>12</ele>
        <time>2013-06-09T09:45:36Z</time>
      </trkpt>
      <trkpt lat="45.89236" lon="-0.94791">
        <ele>12</ele>
        <time>2013-06-09T09:45:44Z</time>
      </trkpt>
      <trkpt lat="45.89243" lon="-0.94802">
        <ele>12</ele>
        <time>2013-06-09T09:45:52Z</time>
      </trkpt>
      <trkpt lat="45.89249" lon="-0.94813">
        <ele>12</ele>
        <time>2013-06-09T09:46:00Z</time>
      </trkpt>
      <trkpt lat="45.89255" lon="-0.94823">
        <ele>12</ele>
        <time>2013-06-09T09:46:08Z</time>
      </trkpt>
      <trkpt lat="45.89262" lon="-0.94832">
        <ele>12</ele>
        <time>2013-06-09T09:46:15Z</time>
      </trkpt>
      <trkpt lat="45.89267" lon="-0.94843">
        <ele>12</ele>
        <time>2013-06-09T09:46:24Z</time>
      </trkpt>
      <trkpt lat="45.89272" lon="-0.94856">
        <ele>12</ele>
        <time>2013-06-09T09:46:33Z</time>
      </trkpt>
      <trkpt lat="45.89278" lon="-0.94867">
        <ele>12</ele>
        <time>2013-06-09T09:46:42Z</time>
      </trkpt>
      <trkpt lat="45.89281" lon="-0.94879">
        <ele>12</ele>
        <time>2013-06-09T09:46:51Z</time>
      </trkpt>
      <trkpt lat="45.89284" lon="-0.94892">
        <ele>12</ele>
        <time>2013-06-09T09:46:59Z</time>
      </trkpt>
      <trkpt lat="45.89289" lon="-0.94903">
        <ele>12</ele>
        <time>2013-06-09T09:47:05Z</time>
      </trkpt>
      <trkpt lat="45.89294" lon="-0.94916">
        <ele>12</ele>
        <time>2013-06-09T09:47:14Z</time>
      </trkpt>
      <trkpt lat="45.89298" lon="-0.94929">
        <ele>12</ele>
        <time>2013-06-09T09:47:23Z</time>
      </trkpt>
      <trkpt lat="45.893" lon="-0.94942">
        <ele>12</ele>
        <time>2013-06-09T09:47:31Z</time>
      </trkpt>
      <trkpt lat="45.89306" lon="-0.94953">
        <ele>12</ele>
        <time>2013-06-09T09:47:38Z</time>
      </trkpt>
      <trkpt lat="45.89311" lon="-0.94966">
        <ele>12</ele>
        <time>2013-06-09T09:47:50Z</time>
      </trkpt>
      <trkpt lat="45.89315" lon="-0.9498">
        <ele>12</ele>
        <time>2013-06-09T09:47:57Z</time>
      </trkpt>
      <trkpt lat="45.89318" lon="-0.94993">
        <ele>12</ele>
        <time>2013-06-09T09:48:06Z</time>
      </trkpt>
      <trkpt lat="45.89323" lon="-0.95005">
        <ele>12</ele>
        <time>2013-06-09T09:48:15Z</time>
      </trkpt>
      <trkpt lat="45.89328" lon="-0.95017">
        <ele>12</ele>
        <time>2013-06-09T09:48:26Z</time>
      </trkpt>
      <trkpt lat="45.89334" lon="-0.95028">
        <ele>12</ele>
        <time>2013-06-09T09:48:36Z</time>
      </trkpt>
      <trkpt lat="45.89339" lon="-0.9504">
        <ele>12</ele>
        <time>2013-06-09T09:48:43Z</time>
      </trkpt>
      <trkpt lat="45.89345" lon="-0.95053">
        <ele>12</ele>
        <time>2013-06-09T09:48:52Z</time>
      </trkpt>
      <trkpt lat="45.8935" lon="-0.95066">
        <ele>12</ele>
        <time>2013-06-09T09:48:59Z</time>
      </trkpt>
      <trkpt lat="45.89356" lon="-0.95077">
        <ele>12</ele>
        <time>2013-06-09T09:49:06Z</time>
      </trkpt>
      <trkpt lat="45.89361" lon="-0.95089">
        <ele>12</ele>
        <time>2013-06-09T09:49:15Z</time>
      </trkpt>
      <trkpt lat="45.89365" lon="-0.95102">
        <ele>12</ele>
        <time>2013-06-09T09:49:25Z</time>
      </trkpt>
      <trkpt lat="45.89362" lon="-0.95115">
        <ele>22</ele>
        <time>2013-06-09T09:49:56Z</time>
      </trkpt>
      <trkpt lat="45.8937" lon="-0.9512">
        <ele>16</ele>
        <time>2013-06-09T09:50:42Z</time>
      </trkpt>
      <trkpt lat="45.89373" lon="-0.95133">
        <ele>16</ele>
        <time>2013-06-09T09:50:50Z</time>
      </trkpt>
      <trkpt lat="45.89379" lon="-0.95144">
        <ele>16</ele>
        <time>2013-06-09T09:50:59Z</time>
      </trkpt>
      <trkpt lat="45.89383" lon="-0.95157">
        <ele>10</ele>
        <time>2013-06-09T09:51:07Z</time>
      </trkpt>
      <trkpt lat="45.89389" lon="-0.95167">
        <ele>10</ele>
        <time>2013-06-09T09:51:15Z</time>
      </trkpt>
      <trkpt lat="45.89392" lon="-0.95179">
        <ele>10</ele>
        <time>2013-06-09T09:51:21Z</time>
      </trkpt>
      <trkpt lat="45.89395" lon="-0.95192">
        <ele>10</ele>
        <time>2013-06-09T09:51:28Z</time>
      </trkpt>
      <trkpt lat="45.89401" lon="-0.95203">
        <ele>10</ele>
        <time>2013-06-09T09:51:36Z</time>
      </trkpt>
      <trkpt lat="45.89405" lon="-0.95214">
        <ele>10</ele>
        <time>2013-06-09T09:51:44Z</time>
      </trkpt>
      <trkpt lat="45.89409" lon="-0.95228">
        <ele>10</ele>
        <time>2013-06-09T09:51:53Z</time>
      </trkpt>
      <trkpt lat="45.89413" lon="-0.95241">
        <ele>10</ele>
        <time>2013-06-09T09:52:01Z</time>
      </trkpt>
      <trkpt lat="45.89419" lon="-0.95251">
        <ele>10</ele>
        <time>2013-06-09T09:52:08Z</time>
      </trkpt>
      <trkpt lat="45.89426" lon="-0.95261">
        <ele>10</ele>
        <time>2013-06-09T09:52:18Z</time>
      </trkpt>
      <trkpt lat="45.8943" lon="-0.95274">
        <ele>10</ele>
        <time>2013-06-09T09:52:24Z</time>
      </trkpt>
      <trkpt lat="45.89433" lon="-0.95287">
        <ele>10</ele>
        <time>2013-06-09T09:52:32Z</time>
      </trkpt>
      <trkpt lat="45.89438" lon="-0.95299">
        <ele>10</ele>
        <time>2013-06-09T09:52:40Z</time>
      </trkpt>
      <trkpt lat="45.89443" lon="-0.95311">
        <ele>10</ele>
        <time>2013-06-09T09:52:48Z</time>
      </trkpt>
      <trkpt lat="45.89448" lon="-0.95323">
        <ele>10</ele>
        <time>2013-06-09T09:52:56Z</time>
      </trkpt>
      <trkpt lat="45.89451" lon="-0.95336">
        <ele>10</ele>
        <time>2013-06-09T09:53:05Z</time>
      </trkpt>
      <trkpt lat="45.89456" lon="-0.95348">
        <ele>10</ele>
        <time>2013-06-09T09:53:13Z</time>
      </trkpt>
      <trkpt lat="45.89462" lon="-0.95359">
        <ele>4</ele>
        <time>2013-06-09T09:53:21Z</time>
      </trkpt>
      <trkpt lat="45.89464" lon="-0.95374">
        <ele>4</ele>
        <time>2013-06-09T09:53:30Z</time>
      </trkpt>
      <trkpt lat="45.8947" lon="-0.95387">
        <ele>4</ele>
        <time>2013-06-09T09:53:40Z</time>
      </trkpt>
      <trkpt lat="45.89474" lon="-0.95399">
        <ele>4</ele>
        <time>2013-06-09T09:53:48Z</time>
      </trkpt>
      <trkpt lat="45.89478" lon="-0.95413">
        <ele>4</ele>
        <time>2013-06-09T09:53:57Z</time>
      </trkpt>
      <trkpt lat="45.89483" lon="-0.95424">
        <ele>4</ele>
        <time>2013-06-09T09:54:04Z</time>
      </trkpt>
      <trkpt lat="45.89488" lon="-0.95435">
        <ele>4</ele>
        <time>2013-06-09T09:54:11Z</time>
      </trkpt>
      <trkpt lat="45.8949" lon="-0.95448">
        <ele>4</ele>
        <time>2013-06-09T09:54:19Z</time>
      </trkpt>
      <trkpt lat="45.89491" lon="-0.95461">
        <ele>10</ele>
        <time>2013-06-09T09:54:27Z</time>
      </trkpt>
      <trkpt lat="45.89494" lon="-0.95475">
        <ele>10</ele>
        <time>2013-06-09T09:54:36Z</time>
      </trkpt>
      <trkpt lat="45.89498" lon="-0.95488">
        <ele>10</ele>
        <time>2013-06-09T09:54:46Z</time>
      </trkpt>
      <trkpt lat="45.89502" lon="-0.95501">
        <ele>10</ele>
        <time>2013-06-09T09:54:55Z</time>
      </trkpt>
      <trkpt lat="45.89507" lon="-0.95513">
        <ele>10</ele>
        <time>2013-06-09T09:55:04Z</time>
      </trkpt>
      <trkpt lat="45.89517" lon="-0.95507">
        <ele>10</ele>
        <time>2013-06-09T09:55:14Z</time>
      </trkpt>
      <trkpt lat="45.89525" lon="-0.95504">
        <ele>10</ele>
        <time>2013-06-09T09:55:20Z</time>
      </trkpt>
      <trkpt lat="45.89534" lon="-0.95498">
        <ele>10</ele>
        <time>2013-06-09T09:55:30Z</time>
      </trkpt>
      <trkpt lat="45.89544" lon="-0.95495">
        <ele>10</ele>
        <time>2013-06-09T09:55:38Z</time>
      </trkpt>
      <trkpt lat="45.89551" lon="-0.95486">
        <ele>10</ele>
        <time>2013-06-09T09:55:48Z</time>
      </trkpt>
      <trkpt lat="45.89561" lon="-0.95486">
        <ele>10</ele>
        <time>2013-06-09T09:55:54Z</time>
      </trkpt>
      <trkpt lat="45.8957" lon="-0.95494">
        <ele>10</ele>
        <time>2013-06-09T09:56:04Z</time>
      </trkpt>
      <trkpt lat="45.89579" lon="-0.95495">
        <ele>10</ele>
        <time>2013-06-09T09:56:14Z</time>
      </trkpt>
      <trkpt lat="45.89588" lon="-0.9549">
        <ele>10</ele>
        <time>2013-06-09T09:56:21Z</time>
      </trkpt>
      <trkpt lat="45.89597" lon="-0.95486">
        <ele>10</ele>
        <time>2013-06-09T09:56:29Z</time>
      </trkpt>
      <trkpt lat="45.89606" lon="-0.95482">
        <ele>10</ele>
        <time>2013-06-09T09:56:36Z</time>
      </trkpt>
      <trkpt lat="45.89615" lon="-0.95477">
        <ele>10</ele>
        <time>2013-06-09T09:56:43Z</time>
      </trkpt>
      <trkpt lat="45.89623" lon="-0.95486">
        <ele>10</ele>
        <time>2013-06-09T09:56:55Z</time>
      </trkpt>
      <trkpt lat="45.89626" lon="-0.95499">
        <ele>10</ele>
        <time>2013-06-09T09:57:03Z</time>
      </trkpt>
      <trkpt lat="45.8963" lon="-0.95512">
        <ele>10</ele>
        <time>2013-06-09T09:57:11Z</time>
      </trkpt>
      <trkpt lat="45.89639" lon="-0.95518">
        <ele>10</ele>
        <time>2013-06-09T09:57:19Z</time>
      </trkpt>
      <trkpt lat="45.89648" lon="-0.95517">
        <ele>10</ele>
        <time>2013-06-09T09:57:27Z</time>
      </trkpt>
      <trkpt lat="45.89657" lon="-0.95513">
        <ele>10</ele>
        <time>2013-06-09T09:57:35Z</time>
      </trkpt>
      <trkpt lat="45.89666" lon="-0.95508">
        <ele>10</ele>
        <time>2013-06-09T09:57:44Z</time>
      </trkpt>
      <trkpt lat="45.89675" lon="-0.95503">
        <ele>10</ele>
        <time>2013-06-09T09:57:53Z</time>
      </trkpt>
      <trkpt lat="45.89684" lon="-0.95499">
        <ele>10</ele>
        <time>2013-06-09T09:58:01Z</time>
      </trkpt>
      <trkpt lat="45.89693" lon="-0.95495">
        <ele>10</ele>
        <time>2013-06-09T09:58:09Z</time>
      </trkpt>
      <trkpt lat="45.89702" lon="-0.95492">
        <ele>10</ele>
        <time>2013-06-09T09:58:16Z</time>
      </trkpt>
      <trkpt lat="45.89712" lon="-0.95489">
        <ele>10</ele>
        <time>2013-06-09T09:58:22Z</time>
      </trkpt>
      <trkpt lat="45.89721" lon="-0.95484">
        <ele>10</ele>
        <time>2013-06-09T09:58:32Z</time>
      </trkpt>
      <trkpt lat="45.8973" lon="-0.95485">
        <ele>10</ele>
        <time>2013-06-09T09:58:42Z</time>
      </trkpt>
      <trkpt lat="45.89735" lon="-0.95497">
        <ele>10</ele>
        <time>2013-06-09T09:58:52Z</time>
      </trkpt>
      <trkpt lat="45.8974" lon="-0.95509">
        <ele>10</ele>
        <time>2013-06-09T09:59:00Z</time>
      </trkpt>
      <trkpt lat="45.8975" lon="-0.95512">
        <ele>10</ele>
        <time>2013-06-09T09:59:36Z</time>
      </trkpt>
      <trkpt lat="45.89761" lon="-0.95513">
        <ele>10</ele>
        <time>2013-06-09T09:59:58Z</time>
      </trkpt>
      <trkpt lat="45.89771" lon="-0.95514">
        <ele>10</ele>
        <time>2013-06-09T10:00:05Z</time>
      </trkpt>
      <trkpt lat="45.8978" lon="-0.95513">
        <ele>10</ele>
        <time>2013-06-09T10:00:11Z</time>
      </trkpt>
      <trkpt lat="45.89791" lon="-0.95511">
        <ele>10</ele>
        <time>2013-06-09T10:00:18Z</time>
      </trkpt>
      <trkpt lat="45.89801" lon="-0.95509">
        <ele>10</ele>
        <time>2013-06-09T10:00:25Z</time>
      </trkpt>
      <trkpt lat="45.89811" lon="-0.95509">
        <ele>10</ele>
        <time>2013-06-09T10:00:33Z</time>
      </trkpt>
      <trkpt lat="45.89821" lon="-0.95509">
        <ele>10</ele>
        <time>2013-06-09T10:00:41Z</time>
      </trkpt>
      <trkpt lat="45.89831" lon="-0.95504">
        <ele>10</ele>
        <time>2013-06-09T10:00:48Z</time>
      </trkpt>
      <trkpt lat="45.8984" lon="-0.95497">
        <ele>10</ele>
        <time>2013-06-09T10:00:54Z</time>
      </trkpt>
      <trkpt lat="45.8985" lon="-0.95494">
        <ele>10</ele>
        <time>2013-06-09T10:01:02Z</time>
      </trkpt>
      <trkpt lat="45.89858" lon="-0.95502">
        <ele>10</ele>
        <time>2013-06-09T10:01:10Z</time>
      </trkpt>
      <trkpt lat="45.89863" lon="-0.95514">
        <ele>10</ele>
        <time>2013-06-09T10:01:17Z</time>
      </trkpt>
      <trkpt lat="45.89868" lon="-0.95526">
        <ele>10</ele>
        <time>2013-06-09T10:01:25Z</time>
      </trkpt>
      <trkpt lat="45.89877" lon="-0.95535">
        <ele>10</ele>
        <time>2013-06-09T10:01:33Z</time>
      </trkpt>
      <trkpt lat="45.89883" lon="-0.95546">
        <ele>10</ele>
        <time>2013-06-09T10:01:42Z</time>
      </trkpt>
      <trkpt lat="45.89887" lon="-0.95558">
        <ele>10</ele>
        <time>2013-06-09T10:01:51Z</time>
      </trkpt>
      <trkpt lat="45.89892" lon="-0.9557">
        <ele>10</ele>
        <time>2013-06-09T10:01:59Z</time>
      </trkpt>
      <trkpt lat="45.89898" lon="-0.95581">
        <ele>10</ele>
        <time>2013-06-09T10:02:08Z</time>
      </trkpt>
      <trkpt lat="45.89904" lon="-0.95592">
        <ele>10</ele>
        <time>2013-06-09T10:02:16Z</time>
      </trkpt>
      <trkpt lat="45.89909" lon="-0.95602">
        <ele>15</ele>
        <time>2013-06-09T10:02:24Z</time>
      </trkpt>
      <trkpt lat="45.89916" lon="-0.95613">
        <ele>15</ele>
        <time>2013-06-09T10:02:32Z</time>
      </trkpt>
      <trkpt lat="45.89922" lon="-0.95626">
        <ele>15</ele>
        <time>2013-06-09T10:02:41Z</time>
      </trkpt>
      <trkpt lat="45.89925" lon="-0.95639">
        <ele>15</ele>
        <time>2013-06-09T10:02:51Z</time>
      </trkpt>
      <trkpt lat="45.89934" lon="-0.95645">
        <ele>15</ele>
        <time>2013-06-09T10:02:59Z</time>
      </trkpt>
      <trkpt lat="45.89944" lon="-0.95648">
        <ele>15</ele>
        <time>2013-06-09T10:03:11Z</time>
      </trkpt>
      <trkpt lat="45.89953" lon="-0.95651">
        <ele>15</ele>
        <time>2013-06-09T10:03:20Z</time>
      </trkpt>
      <trkpt lat="45.89963" lon="-0.95649">
        <ele>15</ele>
        <time>2013-06-09T10:03:30Z</time>
      </trkpt>
      <trkpt lat="45.89973" lon="-0.95649">
        <ele>15</ele>
        <time>2013-06-09T10:03:39Z</time>
      </trkpt>
      <trkpt lat="45.89982" lon="-0.95649">
        <ele>15</ele>
        <time>2013-06-09T10:03:57Z</time>
      </trkpt>
      <trkpt lat="45.89991" lon="-0.95651">
        <ele>9</ele>
        <time>2013-06-09T10:04:04Z</time>
      </trkpt>
      <trkpt lat="45.90001" lon="-0.95654">
        <ele>9</ele>
        <time>2013-06-09T10:04:14Z</time>
      </trkpt>
      <trkpt lat="45.9001" lon="-0.95658">
        <ele>9</ele>
        <time>2013-06-09T10:04:23Z</time>
      </trkpt>
      <trkpt lat="45.90018" lon="-0.95664">
        <ele>9</ele>
        <time>2013-06-09T10:04:31Z</time>
      </trkpt>
      <trkpt lat="45.90028" lon="-0.95669">
        <ele>9</ele>
        <time>2013-06-09T10:04:39Z</time>
      </trkpt>
      <trkpt lat="45.90037" lon="-0.95675">
        <ele>9</ele>
        <time>2013-06-09T10:04:47Z</time>
      </trkpt>
      <trkpt lat="45.90047" lon="-0.95679">
        <ele>9</ele>
        <time>2013-06-09T10:04:55Z</time>
      </trkpt>
      <trkpt lat="45.90055" lon="-0.95684">
        <ele>9</ele>
        <time>2013-06-09T10:05:04Z</time>
      </trkpt>
      <trkpt lat="45.90065" lon="-0.95688">
        <ele>9</ele>
        <time>2013-06-09T10:05:11Z</time>
      </trkpt>
      <trkpt lat="45.90072" lon="-0.95697">
        <ele>9</ele>
        <time>2013-06-09T10:05:19Z</time>
      </trkpt>
      <trkpt lat="45.9008" lon="-0.95705">
        <ele>9</ele>
        <time>2013-06-09T10:05:27Z</time>
      </trkpt>
      <trkpt lat="45.90086" lon="-0.95716">
        <ele>9</ele>
        <time>2013-06-09T10:05:37Z</time>
      </trkpt>
      <trkpt lat="45.90092" lon="-0.95725">
        <ele>9</ele>
        <time>2013-06-09T10:05:45Z</time>
      </trkpt>
      <trkpt lat="45.90099" lon="-0.95734">
        <ele>9</ele>
        <time>2013-06-09T10:05:53Z</time>
      </trkpt>
      <trkpt lat="45.90105" lon="-0.95745">
        <ele>9</ele>
        <time>2013-06-09T10:06:02Z</time>
      </trkpt>
      <trkpt lat="45.90112" lon="-0.95754">
        <ele>9</ele>
        <time>2013-06-09T10:06:09Z</time>
      </trkpt>
      <trkpt lat="45.90121" lon="-0.95763">
        <ele>9</ele>
        <time>2013-06-09T10:06:18Z</time>
      </trkpt>
      <trkpt lat="45.90129" lon="-0.95773">
        <ele>9</ele>
        <time>2013-06-09T10:06:26Z</time>
      </trkpt>
      <trkpt lat="45.90138" lon="-0.95779">
        <ele>9</ele>
        <time>2013-06-09T10:06:33Z</time>
      </trkpt>
      <trkpt lat="45.90145" lon="-0.95788">
        <ele>9</ele>
        <time>2013-06-09T10:06:42Z</time>
      </trkpt>
      <trkpt lat="45.90152" lon="-0.95799">
        <ele>9</ele>
        <time>2013-06-09T10:06:50Z</time>
      </trkpt>
      <trkpt lat="45.9016" lon="-0.95807">
        <ele>9</ele>
        <time>2013-06-09T10:06:57Z</time>
      </trkpt>
      <trkpt lat="45.90169" lon="-0.95812">
        <ele>18</ele>
        <time>2013-06-09T10:07:05Z</time>
      </trkpt>
      <trkpt lat="45.90179" lon="-0.95817">
        <ele>18</ele>
        <time>2013-06-09T10:07:14Z</time>
      </trkpt>
      <trkpt lat="45.90188" lon="-0.95822">
        <ele>18</ele>
        <time>2013-06-09T10:07:22Z</time>
      </trkpt>
      <trkpt lat="45.90196" lon="-0.95825">
        <ele>13</ele>
        <time>2013-06-09T10:07:30Z</time>
      </trkpt>
      <trkpt lat="45.90206" lon="-0.95827">
        <ele>13</ele>
        <time>2013-06-09T10:07:38Z</time>
      </trkpt>
      <trkpt lat="45.90216" lon="-0.95829">
        <ele>13</ele>
        <time>2013-06-09T10:07:46Z</time>
      </trkpt>
      <trkpt lat="45.90225" lon="-0.95833">
        <ele>13</ele>
        <time>2013-06-09T10:07:56Z</time>
      </trkpt>
      <trkpt lat="45.90229" lon="-0.95846">
        <ele>13</ele>
        <time>2013-06-09T10:08:05Z</time>
      </trkpt>
      <trkpt lat="45.90232" lon="-0.95858">
        <ele>13</ele>
        <time>2013-06-09T10:08:13Z</time>
      </trkpt>
      <trkpt lat="45.90233" lon="-0.95872">
        <ele>13</ele>
        <time>2013-06-09T10:08:22Z</time>
      </trkpt>
      <trkpt lat="45.90235" lon="-0.95885">
        <ele>13</ele>
        <time>2013-06-09T10:08:31Z</time>
      </trkpt>
      <trkpt lat="45.90239" lon="-0.95898">
        <ele>13</ele>
        <time>2013-06-09T10:08:39Z</time>
      </trkpt>
      <trkpt lat="45.90243" lon="-0.9591">
        <ele>13</ele>
        <time>2013-06-09T10:08:47Z</time>
      </trkpt>
      <trkpt lat="45.9025" lon="-0.9592">
        <ele>13</ele>
        <time>2013-06-09T10:08:55Z</time>
      </trkpt>
      <trkpt lat="45.90255" lon="-0.95933">
        <ele>13</ele>
        <time>2013-06-09T10:09:04Z</time>
      </trkpt>
      <trkpt lat="45.90262" lon="-0.95944">
        <ele>13</ele>
        <time>2013-06-09T10:09:12Z</time>
      </trkpt>
      <trkpt lat="45.90267" lon="-0.95956">
        <ele>13</ele>
        <time>2013-06-09T10:09:20Z</time>
      </trkpt>
      <trkpt lat="45.90276" lon="-0.95962">
        <ele>13</ele>
        <time>2013-06-09T10:09:32Z</time>
      </trkpt>
      <trkpt lat="45.90285" lon="-0.95961">
        <ele>13</ele>
        <time>2013-06-09T10:09:40Z</time>
      </trkpt>
      <trkpt lat="45.90294" lon="-0.95965">
        <ele>13</ele>
        <time>2013-06-09T10:09:49Z</time>
      </trkpt>
      <trkpt lat="45.90302" lon="-0.95973">
        <ele>8</ele>
        <time>2013-06-09T10:09:59Z</time>
      </trkpt>
      <trkpt lat="45.90299" lon="-0.95986">
        <ele>8</ele>
        <time>2013-06-09T10:10:10Z</time>
      </trkpt>
      <trkpt lat="45.90302" lon="-0.95999">
        <ele>8</ele>
        <time>2013-06-09T10:10:21Z</time>
      </trkpt>
      <trkpt lat="45.90307" lon="-0.96009">
        <ele>13</ele>
        <time>2013-06-09T10:10:29Z</time>
      </trkpt>
      <trkpt lat="45.90314" lon="-0.9602">
        <ele>13</ele>
        <time>2013-06-09T10:10:37Z</time>
      </trkpt>
      <trkpt lat="45.90318" lon="-0.96033">
        <ele>13</ele>
        <time>2013-06-09T10:10:45Z</time>
      </trkpt>
      <trkpt lat="45.90327" lon="-0.96042">
        <ele>13</ele>
        <time>2013-06-09T10:10:52Z</time>
      </trkpt>
      <trkpt lat="45.90333" lon="-0.96052">
        <ele>13</ele>
        <time>2013-06-09T10:11:00Z</time>
      </trkpt>
      <trkpt lat="45.9034" lon="-0.96061">
        <ele>13</ele>
        <time>2013-06-09T10:11:09Z</time>
      </trkpt>
      <trkpt lat="45.90349" lon="-0.9606">
        <ele>13</ele>
        <time>2013-06-09T10:11:17Z</time>
      </trkpt>
      <trkpt lat="45.90359" lon="-0.96062">
        <ele>13</ele>
        <time>2013-06-09T10:11:26Z</time>
      </trkpt>
      <trkpt lat="45.90368" lon="-0.96067">
        <ele>13</ele>
        <time>2013-06-09T10:11:34Z</time>
      </trkpt>
      <trkpt lat="45.90377" lon="-0.96073">
        <ele>13</ele>
        <time>2013-06-09T10:11:41Z</time>
      </trkpt>
      <trkpt lat="45.90383" lon="-0.96084">
        <ele>13</ele>
        <time>2013-06-09T10:11:50Z</time>
      </trkpt>
      <trkpt lat="45.90391" lon="-0.96092">
        <ele>13</ele>
        <time>2013-06-09T10:11:59Z</time>
      </trkpt>
      <trkpt lat="45.90398" lon="-0.96102">
        <ele>13</ele>
        <time>2013-06-09T10:12:08Z</time>
      </trkpt>
      <trkpt lat="45.90405" lon="-0.96113">
        <ele>13</ele>
        <time>2013-06-09T10:12:17Z</time>
      </trkpt>
      <trkpt lat="45.90407" lon="-0.96127">
        <ele>13</ele>
        <time>2013-06-09T10:12:26Z</time>
      </trkpt>
      <trkpt lat="45.90411" lon="-0.96139">
        <ele>13</ele>
        <time>2013-06-09T10:12:33Z</time>
      </trkpt>
      <trkpt lat="45.90415" lon="-0.96151">
        <ele>13</ele>
        <time>2013-06-09T10:12:42Z</time>
      </trkpt>
      <trkpt lat="45.9042" lon="-0.96162">
        <ele>13</ele>
        <time>2013-06-09T10:12:50Z</time>
      </trkpt>
      <trkpt lat="45.90423" lon="-0.96175">
        <ele>13</ele>
        <time>2013-06-09T10:12:59Z</time>
      </trkpt>
      <trkpt lat="45.90425" lon="-0.9619">
        <ele>13</ele>
        <time>2013-06-09T10:13:08Z</time>
      </trkpt>
      <trkpt lat="45.90427" lon="-0.96204">
        <ele>13</ele>
        <time>2013-06-09T10:13:17Z</time>
      </trkpt>
      <trkpt lat="45.9043" lon="-0.96218">
        <ele>13</ele>
        <time>2013-06-09T10:13:25Z</time>
      </trkpt>
      <trkpt lat="45.90432" lon="-0.9623">
        <ele>13</ele>
        <time>2013-06-09T10:13:33Z</time>
      </trkpt>
      <trkpt lat="45.90434" lon="-0.96245">
        <ele>13</ele>
        <time>2013-06-09T10:13:42Z</time>
      </trkpt>
      <trkpt lat="45.90437" lon="-0.96257">
        <ele>13</ele>
        <time>2013-06-09T10:13:50Z</time>
      </trkpt>
      <trkpt lat="45.90446" lon="-0.9626">
        <ele>13</ele>
        <time>2013-06-09T10:13:59Z</time>
      </trkpt>
      <trkpt lat="45.90454" lon="-0.96268">
        <ele>13</ele>
        <time>2013-06-09T10:14:08Z</time>
      </trkpt>
      <trkpt lat="45.90464" lon="-0.96265">
        <ele>13</ele>
        <time>2013-06-09T10:14:17Z</time>
      </trkpt>
      <trkpt lat="45.90474" lon="-0.9626">
        <ele>13</ele>
        <time>2013-06-09T10:14:26Z</time>
      </trkpt>
      <trkpt lat="45.90482" lon="-0.96255">
        <ele>13</ele>
        <time>2013-06-09T10:14:34Z</time>
      </trkpt>
      <trkpt lat="45.90492" lon="-0.96253">
        <ele>13</ele>
        <time>2013-06-09T10:14:42Z</time>
      </trkpt>
      <trkpt lat="45.90501" lon="-0.96257">
        <ele>13</ele>
        <time>2013-06-09T10:14:52Z</time>
      </trkpt>
      <trkpt lat="45.90504" lon="-0.9627">
        <ele>13</ele>
        <time>2013-06-09T10:15:01Z</time>
      </trkpt>
      <trkpt lat="45.90507" lon="-0.96282">
        <ele>13</ele>
        <time>2013-06-09T10:15:11Z</time>
      </trkpt>
      <trkpt lat="45.90512" lon="-0.96294">
        <ele>13</ele>
        <time>2013-06-09T10:15:22Z</time>
      </trkpt>
      <trkpt lat="45.90517" lon="-0.96306">
        <ele>13</ele>
        <time>2013-06-09T10:15:34Z</time>
      </trkpt>
    </trkseg>
  </trk>
</gpx>